<?xml version="1.0" encoding="UTF-8"?>
<gpx xmlns:xsi="http://www.w3.org/2001/XMLSchema-instance" xmlns="http://www.topografix.com/GPX/1/1" xsi:schemaLocation="http://www.topografix.com/GPX/1/1 http://www.topografix.com/GPX/1/1/gpx.xsd http://www.garmin.com/xmlschemas/GpxExtensions/v3 http://www.garmin.com/xmlschemas/GpxExtensionsv3.xsd http://www.garmin.com/xmlschemas/TrackPointExtension/v1 http://www.garmin.com/xmlschemas/TrackPointExtensionv1.xsd http://www.topografix.com/GPX/gpx_style/0/2 http://www.topografix.com/GPX/gpx_style/0/2/gpx_style.xsd" xmlns:gpxtpx="http://www.garmin.com/xmlschemas/TrackPointExtension/v1" xmlns:gpxx="http://www.garmin.com/xmlschemas/GpxExtensions/v3" xmlns:gpx_style="http://www.topografix.com/GPX/gpx_style/0/2" version="1.1" creator="https://gpx.studio">
<metadata>
    <name>Current</name>
    <author>
        <name>gpx.studio</name>
        <link href="https://gpx.studio"></link>
    </author>
</metadata>
<trk>
    <name>Текущий трек: 29 АВГ 2026 13:52</name>
    <type>Cycling</type>
    <trkseg>
    <trkpt lat="60.2541775536" lon="30.4862083588">
        <ele>79.9</ele>
        <time>2026-08-29T11:17:35.000Z</time>
    </trkpt>
    <trkpt lat="60.2541740332" lon="30.4861743283">
        <ele>79.9</ele>
        <time>2026-08-29T11:18:07.000Z</time>
    </trkpt>
    <trkpt lat="60.2541753743" lon="30.4861371126">
        <ele>79.9</ele>
        <time>2026-08-29T11:18:41.000Z</time>
    </trkpt>
    <trkpt lat="60.254100943" lon="30.4861262161">
        <ele>79.9</ele>
        <time>2026-08-29T11:19:04.000Z</time>
    </trkpt>
    <trkpt lat="60.2541017812" lon="30.4861356039">
        <ele>79.9</ele>
        <time>2026-08-29T11:19:24.000Z</time>
    </trkpt>
    <trkpt lat="60.2540993504" lon="30.4861589056">
        <ele>79.9</ele>
        <time>2026-08-29T11:19:55.000Z</time>
    </trkpt>
    <trkpt lat="60.2540989313" lon="30.486127222">
        <ele>79.9</ele>
        <time>2026-08-29T11:20:30.000Z</time>
    </trkpt>
    <trkpt lat="60.2541022841" lon="30.4861375317">
        <ele>79.9</ele>
        <time>2026-08-29T11:21:06.000Z</time>
    </trkpt>
    <trkpt lat="60.2540943213" lon="30.4861428961">
        <ele>80.9</ele>
        <time>2026-08-29T11:21:43.000Z</time>
    </trkpt>
    <trkpt lat="60.2540980931" lon="30.486143399">
        <ele>80.9</ele>
        <time>2026-08-29T11:22:18.000Z</time>
    </trkpt>
    <trkpt lat="60.2540982608" lon="30.486137867">
        <ele>80.9</ele>
        <time>2026-08-29T11:22:44.000Z</time>
    </trkpt>
    <trkpt lat="60.2541007753" lon="30.4861335922">
        <ele>80.9</ele>
        <time>2026-08-29T11:23:16.000Z</time>
    </trkpt>
    <trkpt lat="60.2540999372" lon="30.4861294851">
        <ele>80.9</ele>
        <time>2026-08-29T11:23:38.000Z</time>
    </trkpt>
    <trkpt lat="60.2540960815" lon="30.4861490149">
        <ele>81.4</ele>
        <time>2026-08-29T11:24:05.000Z</time>
    </trkpt>
    <trkpt lat="60.2541007753" lon="30.4861382861">
        <ele>81.4</ele>
        <time>2026-08-29T11:24:22.000Z</time>
    </trkpt>
    <trkpt lat="60.2541020326" lon="30.4861324187">
        <ele>81.4</ele>
        <time>2026-08-29T11:24:38.000Z</time>
    </trkpt>
    <trkpt lat="60.2540992666" lon="30.4861340951">
        <ele>81.4</ele>
        <time>2026-08-29T11:24:49.000Z</time>
    </trkpt>
    <trkpt lat="60.2541004401" lon="30.4861365259">
        <ele>81.8</ele>
        <time>2026-08-29T11:25:02.000Z</time>
    </trkpt>
    <trkpt lat="60.254100021" lon="30.4861354362">
        <ele>81.8</ele>
        <time>2026-08-29T11:25:16.000Z</time>
    </trkpt>
    <trkpt lat="60.2541023679" lon="30.4861400463">
        <ele>81.8</ele>
        <time>2026-08-29T11:25:37.000Z</time>
    </trkpt>
    <trkpt lat="60.2540987637" lon="30.4861370288">
        <ele>81.8</ele>
        <time>2026-08-29T11:25:58.000Z</time>
    </trkpt>
    <trkpt lat="60.2540984284" lon="30.4861374479">
        <ele>81.8</ele>
        <time>2026-08-29T11:26:24.000Z</time>
    </trkpt>
    <trkpt lat="60.254087029" lon="30.4861387052">
        <ele>81.8</ele>
        <time>2026-08-29T11:26:45.000Z</time>
    </trkpt>
    <trkpt lat="60.254087951" lon="30.4861453269">
        <ele>81.8</ele>
        <time>2026-08-29T11:27:05.000Z</time>
    </trkpt>
    <trkpt lat="60.2540714387" lon="30.4861581512">
        <ele>81.8</ele>
        <time>2026-08-29T11:27:25.000Z</time>
    </trkpt>
    <trkpt lat="60.2540840115" lon="30.4861566424">
        <ele>81.8</ele>
        <time>2026-08-29T11:27:39.000Z</time>
    </trkpt>
    <trkpt lat="60.2540841792" lon="30.4861677065">
        <ele>82.3</ele>
        <time>2026-08-29T11:27:55.000Z</time>
    </trkpt>
    <trkpt lat="60.2540757135" lon="30.4861522838">
        <ele>82.3</ele>
        <time>2026-08-29T11:28:08.000Z</time>
    </trkpt>
    <trkpt lat="60.254079653" lon="30.486151278">
        <ele>82.3</ele>
        <time>2026-08-29T11:28:19.000Z</time>
    </trkpt>
    <trkpt lat="60.2540798206" lon="30.4861547146">
        <ele>81.8</ele>
        <time>2026-08-29T11:28:37.000Z</time>
    </trkpt>
    <trkpt lat="60.254082419" lon="30.4861544631">
        <ele>81.8</ele>
        <time>2026-08-29T11:28:53.000Z</time>
    </trkpt>
    <trkpt lat="60.2540827543" lon="30.4861715622">
        <ele>81.8</ele>
        <time>2026-08-29T11:29:06.000Z</time>
    </trkpt>
    <trkpt lat="60.2540672477" lon="30.4861394595">
        <ele>81.8</ele>
        <time>2026-08-29T11:29:16.000Z</time>
    </trkpt>
    <trkpt lat="60.2540543396" lon="30.486142477">
        <ele>81.8</ele>
        <time>2026-08-29T11:29:29.000Z</time>
    </trkpt>
    <trkpt lat="60.2540570218" lon="30.4861417226">
        <ele>81.8</ele>
        <time>2026-08-29T11:29:38.000Z</time>
    </trkpt>
    <trkpt lat="60.2540521603" lon="30.4861427285">
        <ele>81.8</ele>
        <time>2026-08-29T11:29:52.000Z</time>
    </trkpt>
    <trkpt lat="60.254026344" lon="30.4861530382">
        <ele>81.8</ele>
        <time>2026-08-29T11:30:05.000Z</time>
    </trkpt>
    <trkpt lat="60.2539985999" lon="30.4861766752">
        <ele>82.3</ele>
        <time>2026-08-29T11:30:22.000Z</time>
    </trkpt>
    <trkpt lat="60.2539945766" lon="30.4861749988">
        <ele>81.8</ele>
        <time>2026-08-29T11:30:35.000Z</time>
    </trkpt>
    <trkpt lat="60.25405325" lon="30.4861196782">
        <ele>81.8</ele>
        <time>2026-08-29T11:30:43.000Z</time>
    </trkpt>
    <trkpt lat="60.2540609613" lon="30.4861262161">
        <ele>81.8</ele>
        <time>2026-08-29T11:30:52.000Z</time>
    </trkpt>
    <trkpt lat="60.2540887054" lon="30.4861519486">
        <ele>81.8</ele>
        <time>2026-08-29T11:31:06.000Z</time>
    </trkpt>
    <trkpt lat="60.2540801559" lon="30.4861568939">
        <ele>81.8</ele>
        <time>2026-08-29T11:31:17.000Z</time>
    </trkpt>
    <trkpt lat="60.2540413477" lon="30.4861603305">
        <ele>81.8</ele>
        <time>2026-08-29T11:31:37.000Z</time>
    </trkpt>
    <trkpt lat="60.2540229075" lon="30.4861567263">
        <ele>81.8</ele>
        <time>2026-08-29T11:32:07.000Z</time>
    </trkpt>
    <trkpt lat="60.2540053893" lon="30.4860589933">
        <ele>81.8</ele>
        <time>2026-08-29T11:32:22.000Z</time>
    </trkpt>
    <trkpt lat="60.2539848536" lon="30.4859606735">
        <ele>81.8</ele>
        <time>2026-08-29T11:32:35.000Z</time>
    </trkpt>
    <trkpt lat="60.2539690956" lon="30.485930834">
        <ele>81.4</ele>
        <time>2026-08-29T11:32:54.000Z</time>
    </trkpt>
    <trkpt lat="60.2539497335" lon="30.4857324343">
        <ele>81.4</ele>
        <time>2026-08-29T11:33:06.000Z</time>
    </trkpt>
    <trkpt lat="60.2539535891" lon="30.4855570011">
        <ele>81.8</ele>
        <time>2026-08-29T11:33:17.000Z</time>
    </trkpt>
    <trkpt lat="60.25395317" lon="30.4854756966">
        <ele>81.8</ele>
        <time>2026-08-29T11:33:38.000Z</time>
    </trkpt>
    <trkpt lat="60.253942525" lon="30.485436637">
        <ele>81.8</ele>
        <time>2026-08-29T11:33:53.000Z</time>
    </trkpt>
    <trkpt lat="60.2539285272" lon="30.4853842501">
        <ele>81.8</ele>
        <time>2026-08-29T11:34:14.000Z</time>
    </trkpt>
    <trkpt lat="60.2539216541" lon="30.4853656422">
        <ele>81.8</ele>
        <time>2026-08-29T11:34:36.000Z</time>
    </trkpt>
    <trkpt lat="60.2539280243" lon="30.4853308573">
        <ele>81.8</ele>
        <time>2026-08-29T11:34:57.000Z</time>
    </trkpt>
    <trkpt lat="60.2539312094" lon="30.485307388">
        <ele>81.8</ele>
        <time>2026-08-29T11:35:15.000Z</time>
    </trkpt>
    <trkpt lat="60.2539095003" lon="30.4852498882">
        <ele>82.3</ele>
        <time>2026-08-29T11:35:29.000Z</time>
    </trkpt>
    <trkpt lat="60.2539035492" lon="30.4851710983">
        <ele>82.3</ele>
        <time>2026-08-29T11:35:43.000Z</time>
    </trkpt>
    <trkpt lat="60.2538998611" lon="30.4851120897">
        <ele>82.3</ele>
        <time>2026-08-29T11:35:58.000Z</time>
    </trkpt>
    <trkpt lat="60.2538895514" lon="30.4850530811">
        <ele>82.3</ele>
        <time>2026-08-29T11:36:11.000Z</time>
    </trkpt>
    <trkpt lat="60.2538960055" lon="30.4849887919">
        <ele>82.3</ele>
        <time>2026-08-29T11:36:26.000Z</time>
    </trkpt>
    <trkpt lat="60.2539163735" lon="30.4848853592">
        <ele>81.8</ele>
        <time>2026-08-29T11:36:39.000Z</time>
    </trkpt>
    <trkpt lat="60.2539410163" lon="30.4848252609">
        <ele>81.8</ele>
        <time>2026-08-29T11:36:50.000Z</time>
    </trkpt>
    <trkpt lat="60.2539519966" lon="30.4847765621">
        <ele>81.8</ele>
        <time>2026-08-29T11:37:01.000Z</time>
    </trkpt>
    <trkpt lat="60.2539539244" lon="30.4847064894">
        <ele>81.8</ele>
        <time>2026-08-29T11:37:13.000Z</time>
    </trkpt>
    <trkpt lat="60.2539402619" lon="30.4845872987">
        <ele>81.8</ele>
        <time>2026-08-29T11:37:23.000Z</time>
    </trkpt>
    <trkpt lat="60.2539313771" lon="30.4844047409">
        <ele>81.4</ele>
        <time>2026-08-29T11:37:36.000Z</time>
    </trkpt>
    <trkpt lat="60.2539317962" lon="30.4843823612">
        <ele>81.4</ele>
        <time>2026-08-29T11:37:37.000Z</time>
    </trkpt>
    <trkpt lat="60.2539251745" lon="30.4843113665">
        <ele>81.4</ele>
        <time>2026-08-29T11:37:39.000Z</time>
    </trkpt>
    <trkpt lat="60.2539102547" lon="30.4842044972">
        <ele>81.4</ele>
        <time>2026-08-29T11:37:42.000Z</time>
    </trkpt>
    <trkpt lat="60.253896676" lon="30.4838631861">
        <ele>81.4</ele>
        <time>2026-08-29T11:37:51.000Z</time>
    </trkpt>
    <trkpt lat="60.2539376635" lon="30.4835770279">
        <ele>81.4</ele>
        <time>2026-08-29T11:38:02.000Z</time>
    </trkpt>
    <trkpt lat="60.2539561875" lon="30.4835072905">
        <ele>81.4</ele>
        <time>2026-08-29T11:38:05.000Z</time>
    </trkpt>
    <trkpt lat="60.2539716102" lon="30.4833859205">
        <ele>81.4</ele>
        <time>2026-08-29T11:38:09.000Z</time>
    </trkpt>
    <trkpt lat="60.2540405933" lon="30.4830742814">
        <ele>81.4</ele>
        <time>2026-08-29T11:38:22.000Z</time>
    </trkpt>
    <trkpt lat="60.2540431917" lon="30.4829937313">
        <ele>81.4</ele>
        <time>2026-08-29T11:38:26.000Z</time>
    </trkpt>
    <trkpt lat="60.2540426888" lon="30.4828929808">
        <ele>80.9</ele>
        <time>2026-08-29T11:38:30.000Z</time>
    </trkpt>
    <trkpt lat="60.2540840954" lon="30.4826452117">
        <ele>80.9</ele>
        <time>2026-08-29T11:38:41.000Z</time>
    </trkpt>
    <trkpt lat="60.2540892083" lon="30.482520489">
        <ele>80.9</ele>
        <time>2026-08-29T11:38:54.000Z</time>
    </trkpt>
    <trkpt lat="60.2540910523" lon="30.4824707843">
        <ele>80.9</ele>
        <time>2026-08-29T11:39:14.000Z</time>
    </trkpt>
    <trkpt lat="60.2541008592" lon="30.4824105185">
        <ele>79.9</ele>
        <time>2026-08-29T11:39:26.000Z</time>
    </trkpt>
    <trkpt lat="60.2541102469" lon="30.4823784996">
        <ele>79.5</ele>
        <time>2026-08-29T11:39:37.000Z</time>
    </trkpt>
    <trkpt lat="60.2541070618" lon="30.4822987877">
        <ele>79.5</ele>
        <time>2026-08-29T11:39:43.000Z</time>
    </trkpt>
    <trkpt lat="60.2541252505" lon="30.4820195027">
        <ele>79.5</ele>
        <time>2026-08-29T11:39:55.000Z</time>
    </trkpt>
    <trkpt lat="60.2541232388" lon="30.4819388688">
        <ele>79.5</ele>
        <time>2026-08-29T11:40:10.000Z</time>
    </trkpt>
    <trkpt lat="60.2541215625" lon="30.4819096997">
        <ele>79.5</ele>
        <time>2026-08-29T11:40:11.000Z</time>
    </trkpt>
    <trkpt lat="60.2541250829" lon="30.4817707278">
        <ele>79.5</ele>
        <time>2026-08-29T11:40:17.000Z</time>
    </trkpt>
    <trkpt lat="60.2540939022" lon="30.4815000761">
        <ele>79.5</ele>
        <time>2026-08-29T11:40:29.000Z</time>
    </trkpt>
    <trkpt lat="60.2540846821" lon="30.4813298397">
        <ele>79.5</ele>
        <time>2026-08-29T11:40:42.000Z</time>
    </trkpt>
    <trkpt lat="60.2540753782" lon="30.4812501278">
        <ele>79.5</ele>
        <time>2026-08-29T11:40:49.000Z</time>
    </trkpt>
    <trkpt lat="60.2541178744" lon="30.4810751975">
        <ele>80.4</ele>
        <time>2026-08-29T11:40:58.000Z</time>
    </trkpt>
    <trkpt lat="60.2541373204" lon="30.4808810726">
        <ele>79.9</ele>
        <time>2026-08-29T11:41:12.000Z</time>
    </trkpt>
    <trkpt lat="60.2541123424" lon="30.4806837626">
        <ele>79.9</ele>
        <time>2026-08-29T11:41:24.000Z</time>
    </trkpt>
    <trkpt lat="60.2540959977" lon="30.480475137">
        <ele>79.9</ele>
        <time>2026-08-29T11:41:37.000Z</time>
    </trkpt>
    <trkpt lat="60.2540999372" lon="30.4800998792">
        <ele>79.9</ele>
        <time>2026-08-29T11:41:51.000Z</time>
    </trkpt>
    <trkpt lat="60.2540529147" lon="30.4799731448">
        <ele>79.9</ele>
        <time>2026-08-29T11:41:59.000Z</time>
    </trkpt>
    <trkpt lat="60.2540611289" lon="30.479779942">
        <ele>79.9</ele>
        <time>2026-08-29T11:42:10.000Z</time>
    </trkpt>
    <trkpt lat="60.2540787309" lon="30.4795934446">
        <ele>79.5</ele>
        <time>2026-08-29T11:42:24.000Z</time>
    </trkpt>
    <trkpt lat="60.2541127615" lon="30.4794944543">
        <ele>79.5</ele>
        <time>2026-08-29T11:42:36.000Z</time>
    </trkpt>
    <trkpt lat="60.2541472949" lon="30.4794276506">
        <ele>79.5</ele>
        <time>2026-08-29T11:42:58.000Z</time>
    </trkpt>
    <trkpt lat="60.2541740332" lon="30.479366295">
        <ele>79.0</ele>
        <time>2026-08-29T11:43:11.000Z</time>
    </trkpt>
    <trkpt lat="60.2542783041" lon="30.4793064483">
        <ele>79.0</ele>
        <time>2026-08-29T11:43:22.000Z</time>
    </trkpt>
    <trkpt lat="60.2543840837" lon="30.4791153409">
        <ele>79.0</ele>
        <time>2026-08-29T11:43:35.000Z</time>
    </trkpt>
    <trkpt lat="60.2544082236" lon="30.4790492076">
        <ele>78.5</ele>
        <time>2026-08-29T11:43:49.000Z</time>
    </trkpt>
    <trkpt lat="60.2544315252" lon="30.478971675">
        <ele>78.5</ele>
        <time>2026-08-29T11:44:05.000Z</time>
    </trkpt>
    <trkpt lat="60.2544600237" lon="30.4788758699">
        <ele>77.0</ele>
        <time>2026-08-29T11:44:10.000Z</time>
    </trkpt>
    <trkpt lat="60.2545183618" lon="30.4786408413">
        <ele>77.0</ele>
        <time>2026-08-29T11:44:20.000Z</time>
    </trkpt>
    <trkpt lat="60.2545829024" lon="30.4785146937">
        <ele>76.6</ele>
        <time>2026-08-29T11:44:34.000Z</time>
    </trkpt>
    <trkpt lat="60.2546134964" lon="30.4783490673">
        <ele>76.6</ele>
        <time>2026-08-29T11:44:47.000Z</time>
    </trkpt>
    <trkpt lat="60.2546359599" lon="30.4782786593">
        <ele>77.5</ele>
        <time>2026-08-29T11:45:04.000Z</time>
    </trkpt>
    <trkpt lat="60.2546436712" lon="30.4782370012">
        <ele>77.5</ele>
        <time>2026-08-29T11:45:19.000Z</time>
    </trkpt>
    <trkpt lat="60.2546414081" lon="30.4781968519">
        <ele>77.5</ele>
        <time>2026-08-29T11:45:34.000Z</time>
    </trkpt>
    <trkpt lat="60.2546362951" lon="30.4781640787">
        <ele>77.5</ele>
        <time>2026-08-29T11:45:36.000Z</time>
    </trkpt>
    <trkpt lat="60.2545728441" lon="30.4780171439">
        <ele>77.5</ele>
        <time>2026-08-29T11:45:46.000Z</time>
    </trkpt>
    <trkpt lat="60.2545355447" lon="30.4779220093">
        <ele>78.0</ele>
        <time>2026-08-29T11:45:57.000Z</time>
    </trkpt>
    <trkpt lat="60.2544878516" lon="30.4777395353">
        <ele>77.5</ele>
        <time>2026-08-29T11:46:09.000Z</time>
    </trkpt>
    <trkpt lat="60.2544512227" lon="30.4776158184">
        <ele>77.5</ele>
        <time>2026-08-29T11:46:20.000Z</time>
    </trkpt>
    <trkpt lat="60.2544332016" lon="30.4775654431">
        <ele>77.5</ele>
        <time>2026-08-29T11:46:25.000Z</time>
    </trkpt>
    <trkpt lat="60.2543622069" lon="30.4773577396">
        <ele>77.5</ele>
        <time>2026-08-29T11:46:34.000Z</time>
    </trkpt>
    <trkpt lat="60.254340414" lon="30.4773109686">
        <ele>77.5</ele>
        <time>2026-08-29T11:46:37.000Z</time>
    </trkpt>
    <trkpt lat="60.2543194592" lon="30.4771690629">
        <ele>77.5</ele>
        <time>2026-08-29T11:46:44.000Z</time>
    </trkpt>
    <trkpt lat="60.2542614564" lon="30.4769793805">
        <ele>77.5</ele>
        <time>2026-08-29T11:46:53.000Z</time>
    </trkpt>
    <trkpt lat="60.2542617079" lon="30.4768585972">
        <ele>77.5</ele>
        <time>2026-08-29T11:47:06.000Z</time>
    </trkpt>
    <trkpt lat="60.2542431001" lon="30.476770252">
        <ele>77.0</ele>
        <time>2026-08-29T11:47:19.000Z</time>
    </trkpt>
    <trkpt lat="60.2542442735" lon="30.4766893666">
        <ele>77.0</ele>
        <time>2026-08-29T11:47:31.000Z</time>
    </trkpt>
    <trkpt lat="60.2542372327" lon="30.4766542464">
        <ele>77.0</ele>
        <time>2026-08-29T11:47:52.000Z</time>
    </trkpt>
    <trkpt lat="60.2542331256" lon="30.4766333755">
        <ele>77.0</ele>
        <time>2026-08-29T11:48:07.000Z</time>
    </trkpt>
    <trkpt lat="60.2542322036" lon="30.4766254965">
        <ele>77.0</ele>
        <time>2026-08-29T11:48:19.000Z</time>
    </trkpt>
    <trkpt lat="60.2542270906" lon="30.4766156059">
        <ele>76.6</ele>
        <time>2026-08-29T11:48:30.000Z</time>
    </trkpt>
    <trkpt lat="60.2542633004" lon="30.4765603691">
        <ele>76.6</ele>
        <time>2026-08-29T11:48:40.000Z</time>
    </trkpt>
    <trkpt lat="60.2542415913" lon="30.4764930625">
        <ele>76.6</ele>
        <time>2026-08-29T11:49:05.000Z</time>
    </trkpt>
    <trkpt lat="60.2542273421" lon="30.4764729459">
        <ele>76.6</ele>
        <time>2026-08-29T11:49:24.000Z</time>
    </trkpt>
    <trkpt lat="60.2541925572" lon="30.476529859">
        <ele>76.6</ele>
        <time>2026-08-29T11:49:36.000Z</time>
    </trkpt>
    <trkpt lat="60.2541918866" lon="30.4765304457">
        <ele>76.6</ele>
        <time>2026-08-29T11:49:37.000Z</time>
    </trkpt>
    <trkpt lat="60.2541760448" lon="30.4765136819">
        <ele>76.6</ele>
        <time>2026-08-29T11:49:40.000Z</time>
    </trkpt>
    <trkpt lat="60.2541136835" lon="30.4764512368">
        <ele>76.6</ele>
        <time>2026-08-29T11:49:49.000Z</time>
    </trkpt>
    <trkpt lat="60.2540397551" lon="30.4763143603">
        <ele>77.0</ele>
        <time>2026-08-29T11:50:01.000Z</time>
    </trkpt>
    <trkpt lat="60.2539478894" lon="30.4761012085">
        <ele>77.0</ele>
        <time>2026-08-29T11:50:12.000Z</time>
    </trkpt>
    <trkpt lat="60.2538955025" lon="30.4759183992">
        <ele>76.6</ele>
        <time>2026-08-29T11:50:25.000Z</time>
    </trkpt>
    <trkpt lat="60.2538576163" lon="30.4757077619">
        <ele>76.6</ele>
        <time>2026-08-29T11:50:38.000Z</time>
    </trkpt>
    <trkpt lat="60.2538712788" lon="30.475676246">
        <ele>76.6</ele>
        <time>2026-08-29T11:50:52.000Z</time>
    </trkpt>
    <trkpt lat="60.2538795769" lon="30.4755999707">
        <ele>76.6</ele>
        <time>2026-08-29T11:51:02.000Z</time>
    </trkpt>
    <trkpt lat="60.2538494859" lon="30.4755545408">
        <ele>76.6</ele>
        <time>2026-08-29T11:51:06.000Z</time>
    </trkpt>
    <trkpt lat="60.2537805866" lon="30.4753334261">
        <ele>77.0</ele>
        <time>2026-08-29T11:51:18.000Z</time>
    </trkpt>
    <trkpt lat="60.2537547704" lon="30.4752747528">
        <ele>77.0</ele>
        <time>2026-08-29T11:51:23.000Z</time>
    </trkpt>
    <trkpt lat="60.2537130285" lon="30.475260755">
        <ele>77.0</ele>
        <time>2026-08-29T11:51:37.000Z</time>
    </trkpt>
    <trkpt lat="60.2537049819" lon="30.475287661">
        <ele>77.5</ele>
        <time>2026-08-29T11:51:51.000Z</time>
    </trkpt>
    <trkpt lat="60.2537059877" lon="30.4753004014">
        <ele>77.5</ele>
        <time>2026-08-29T11:52:07.000Z</time>
    </trkpt>
    <trkpt lat="60.2536921576" lon="30.4753136449">
        <ele>77.5</ele>
        <time>2026-08-29T11:52:23.000Z</time>
    </trkpt>
    <trkpt lat="60.2536815125" lon="30.4753180034">
        <ele>77.5</ele>
        <time>2026-08-29T11:52:38.000Z</time>
    </trkpt>
    <trkpt lat="60.2536570374" lon="30.4753188416">
        <ele>77.5</ele>
        <time>2026-08-29T11:52:49.000Z</time>
    </trkpt>
    <trkpt lat="60.2536463086" lon="30.4753181711">
        <ele>77.5</ele>
        <time>2026-08-29T11:53:09.000Z</time>
    </trkpt>
    <trkpt lat="60.2536471467" lon="30.4753199313">
        <ele>77.5</ele>
        <time>2026-08-29T11:53:27.000Z</time>
    </trkpt>
    <trkpt lat="60.2536333166" lon="30.4753268044">
        <ele>77.5</ele>
        <time>2026-08-29T11:53:50.000Z</time>
    </trkpt>
    <trkpt lat="60.25362988" lon="30.4753318336">
        <ele>77.5</ele>
        <time>2026-08-29T11:54:18.000Z</time>
    </trkpt>
    <trkpt lat="60.253626192" lon="30.4753330909">
        <ele>77.5</ele>
        <time>2026-08-29T11:54:41.000Z</time>
    </trkpt>
    <trkpt lat="60.2536228392" lon="30.475327475">
        <ele>77.0</ele>
        <time>2026-08-29T11:55:04.000Z</time>
    </trkpt>
    <trkpt lat="60.2536214143" lon="30.4753206018">
        <ele>77.0</ele>
        <time>2026-08-29T11:55:25.000Z</time>
    </trkpt>
    <trkpt lat="60.253627114" lon="30.4753190931">
        <ele>77.0</ele>
        <time>2026-08-29T11:55:42.000Z</time>
    </trkpt>
    <trkpt lat="60.2536285389" lon="30.4753190931">
        <ele>77.0</ele>
        <time>2026-08-29T11:56:01.000Z</time>
    </trkpt>
    <trkpt lat="60.2536158822" lon="30.4753368627">
        <ele>77.0</ele>
        <time>2026-08-29T11:56:21.000Z</time>
    </trkpt>
    <trkpt lat="60.2535625733" lon="30.475350609">
        <ele>77.0</ele>
        <time>2026-08-29T11:56:32.000Z</time>
    </trkpt>
    <trkpt lat="60.2535027266" lon="30.4753977992">
        <ele>77.0</ele>
        <time>2026-08-29T11:56:45.000Z</time>
    </trkpt>
    <trkpt lat="60.2534884773" lon="30.4754574783">
        <ele>77.0</ele>
        <time>2026-08-29T11:57:00.000Z</time>
    </trkpt>
    <trkpt lat="60.2534209192" lon="30.4755644314">
        <ele>77.0</ele>
        <time>2026-08-29T11:57:12.000Z</time>
    </trkpt>
    <trkpt lat="60.2533976175" lon="30.4755526129">
        <ele>77.0</ele>
        <time>2026-08-29T11:57:22.000Z</time>
    </trkpt>
    <trkpt lat="60.2533607371" lon="30.4755246174">
        <ele>77.0</ele>
        <time>2026-08-29T11:57:33.000Z</time>
    </trkpt>
    <trkpt lat="60.253360318" lon="30.475474745">
        <ele>77.0</ele>
        <time>2026-08-29T11:57:45.000Z</time>
    </trkpt>
    <trkpt lat="60.253328383" lon="30.4753809515">
        <ele>77.0</ele>
        <time>2026-08-29T11:57:57.000Z</time>
    </trkpt>
    <trkpt lat="60.2533110324" lon="30.4753717314">
        <ele>77.0</ele>
        <time>2026-08-29T11:58:11.000Z</time>
    </trkpt>
    <trkpt lat="60.2532883175" lon="30.4753653612">
        <ele>77.0</ele>
        <time>2026-08-29T11:58:21.000Z</time>
    </trkpt>
    <trkpt lat="60.2532503475" lon="30.4753813706">
        <ele>77.0</ele>
        <time>2026-08-29T11:58:35.000Z</time>
    </trkpt>
    <trkpt lat="60.2532180771" lon="30.4754347634">
        <ele>77.0</ele>
        <time>2026-08-29T11:58:43.000Z</time>
    </trkpt>
    <trkpt lat="60.25315932" lon="30.4754810315">
        <ele>77.0</ele>
        <time>2026-08-29T11:58:55.000Z</time>
    </trkpt>
    <trkpt lat="60.2531076036" lon="30.475487737">
        <ele>77.5</ele>
        <time>2026-08-29T11:59:07.000Z</time>
    </trkpt>
    <trkpt lat="60.2530032489" lon="30.4754800256">
        <ele>77.5</ele>
        <time>2026-08-29T11:59:19.000Z</time>
    </trkpt>
    <trkpt lat="60.25294994" lon="30.475483546">
        <ele>77.5</ele>
        <time>2026-08-29T11:59:29.000Z</time>
    </trkpt>
    <trkpt lat="60.2529230341" lon="30.4755306523">
        <ele>77.5</ele>
        <time>2026-08-29T11:59:41.000Z</time>
    </trkpt>
    <trkpt lat="60.2529002354" lon="30.4755607434">
        <ele>77.5</ele>
        <time>2026-08-29T11:59:54.000Z</time>
    </trkpt>
    <trkpt lat="60.2529094554" lon="30.4755285569">
        <ele>77.5</ele>
        <time>2026-08-29T12:00:12.000Z</time>
    </trkpt>
    <trkpt lat="60.2529162448" lon="30.4755218513">
        <ele>77.5</ele>
        <time>2026-08-29T12:00:28.000Z</time>
    </trkpt>
    <trkpt lat="60.252926806" lon="30.4755314067">
        <ele>77.5</ele>
        <time>2026-08-29T12:00:51.000Z</time>
    </trkpt>
    <trkpt lat="60.2529338468" lon="30.4755273834">
        <ele>77.5</ele>
        <time>2026-08-29T12:01:13.000Z</time>
    </trkpt>
    <trkpt lat="60.2529461682" lon="30.4755290598">
        <ele>77.5</ele>
        <time>2026-08-29T12:01:28.000Z</time>
    </trkpt>
    <trkpt lat="60.2529779356" lon="30.4755598214">
        <ele>77.5</ele>
        <time>2026-08-29T12:01:45.000Z</time>
    </trkpt>
    <trkpt lat="60.2530417219" lon="30.4757441394">
        <ele>77.5</ele>
        <time>2026-08-29T12:01:59.000Z</time>
    </trkpt>
    <trkpt lat="60.2530979645" lon="30.4758184869">
        <ele>77.5</ele>
        <time>2026-08-29T12:02:11.000Z</time>
    </trkpt>
    <trkpt lat="60.253125038" lon="30.4758914933">
        <ele>77.5</ele>
        <time>2026-08-29T12:02:23.000Z</time>
    </trkpt>
    <trkpt lat="60.2531272173" lon="30.4758901522">
        <ele>77.5</ele>
        <time>2026-08-29T12:02:41.000Z</time>
    </trkpt>
    <trkpt lat="60.2531294804" lon="30.4758876376">
        <ele>77.5</ele>
        <time>2026-08-29T12:03:09.000Z</time>
    </trkpt>
    <trkpt lat="60.2531370241" lon="30.4758840334">
        <ele>77.5</ele>
        <time>2026-08-29T12:03:24.000Z</time>
    </trkpt>
    <trkpt lat="60.2531461604" lon="30.4758789204">
        <ele>77.5</ele>
        <time>2026-08-29T12:03:48.000Z</time>
    </trkpt>
    <trkpt lat="60.2531485911" lon="30.4758755676">
        <ele>77.5</ele>
        <time>2026-08-29T12:04:09.000Z</time>
    </trkpt>
    <trkpt lat="60.2531458251" lon="30.4758728016">
        <ele>77.5</ele>
        <time>2026-08-29T12:04:30.000Z</time>
    </trkpt>
    <trkpt lat="60.2531415503" lon="30.4758770764">
        <ele>77.5</ele>
        <time>2026-08-29T12:04:44.000Z</time>
    </trkpt>
    <trkpt lat="60.2531342581" lon="30.4758849554">
        <ele>77.5</ele>
        <time>2026-08-29T12:05:09.000Z</time>
    </trkpt>
    <trkpt lat="60.2531099506" lon="30.4759433772">
        <ele>77.5</ele>
        <time>2026-08-29T12:05:31.000Z</time>
    </trkpt>
    <trkpt lat="60.2531264629" lon="30.4759815987">
        <ele>77.5</ele>
        <time>2026-08-29T12:05:44.000Z</time>
    </trkpt>
    <trkpt lat="60.2531263791" lon="30.4760118574">
        <ele>77.5</ele>
        <time>2026-08-29T12:05:52.000Z</time>
    </trkpt>
    <trkpt lat="60.2531395387" lon="30.4761761427">
        <ele>77.5</ele>
        <time>2026-08-29T12:06:04.000Z</time>
    </trkpt>
    <trkpt lat="60.2531464119" lon="30.4762558546">
        <ele>77.5</ele>
        <time>2026-08-29T12:06:15.000Z</time>
    </trkpt>
    <trkpt lat="60.2531522792" lon="30.4763234966">
        <ele>77.5</ele>
        <time>2026-08-29T12:06:28.000Z</time>
    </trkpt>
    <trkpt lat="60.253179688" lon="30.4763813317">
        <ele>77.5</ele>
        <time>2026-08-29T12:06:47.000Z</time>
    </trkpt>
    <trkpt lat="60.2532155626" lon="30.4764465429">
        <ele>77.0</ele>
        <time>2026-08-29T12:07:02.000Z</time>
    </trkpt>
    <trkpt lat="60.2532328293" lon="30.4765510652">
        <ele>77.0</ele>
        <time>2026-08-29T12:07:15.000Z</time>
    </trkpt>
    <trkpt lat="60.2532388642" lon="30.476653995">
        <ele>77.0</ele>
        <time>2026-08-29T12:07:28.000Z</time>
    </trkpt>
    <trkpt lat="60.2532647643" lon="30.4767343774">
        <ele>77.0</ele>
        <time>2026-08-29T12:07:42.000Z</time>
    </trkpt>
    <trkpt lat="60.2533060033" lon="30.4768053722">
        <ele>77.0</ele>
        <time>2026-08-29T12:07:54.000Z</time>
    </trkpt>
    <trkpt lat="60.2533101942" lon="30.4767971579">
        <ele>77.0</ele>
        <time>2026-08-29T12:08:05.000Z</time>
    </trkpt>
    <trkpt lat="60.2533153072" lon="30.4768935498">
        <ele>77.0</ele>
        <time>2026-08-29T12:08:14.000Z</time>
    </trkpt>
    <trkpt lat="60.2533536963" lon="30.4769315198">
        <ele>77.0</ele>
        <time>2026-08-29T12:08:24.000Z</time>
    </trkpt>
    <trkpt lat="60.253383955" lon="30.4769603536">
        <ele>77.0</ele>
        <time>2026-08-29T12:08:32.000Z</time>
    </trkpt>
    <trkpt lat="60.253422847" lon="30.477008298">
        <ele>77.0</ele>
        <time>2026-08-29T12:08:40.000Z</time>
    </trkpt>
    <trkpt lat="60.2535185684" lon="30.4770988226">
        <ele>77.0</ele>
        <time>2026-08-29T12:08:51.000Z</time>
    </trkpt>
    <trkpt lat="60.2535519283" lon="30.4771603458">
        <ele>77.0</ele>
        <time>2026-08-29T12:09:03.000Z</time>
    </trkpt>
    <trkpt lat="60.2535908204" lon="30.4772603419">
        <ele>77.0</ele>
        <time>2026-08-29T12:09:15.000Z</time>
    </trkpt>
    <trkpt lat="60.2536327299" lon="30.4773221165">
        <ele>77.0</ele>
        <time>2026-08-29T12:09:26.000Z</time>
    </trkpt>
    <trkpt lat="60.2536613122" lon="30.4774158262">
        <ele>77.0</ele>
        <time>2026-08-29T12:09:38.000Z</time>
    </trkpt>
    <trkpt lat="60.2536872961" lon="30.4774838034">
        <ele>76.6</ele>
        <time>2026-08-29T12:09:51.000Z</time>
    </trkpt>
    <trkpt lat="60.2537037246" lon="30.4775388725">
        <ele>76.6</ele>
        <time>2026-08-29T12:09:59.000Z</time>
    </trkpt>
    <trkpt lat="60.2537561953" lon="30.4777029064">
        <ele>76.6</ele>
        <time>2026-08-29T12:10:10.000Z</time>
    </trkpt>
    <trkpt lat="60.2537831012" lon="30.4778055009">
        <ele>76.6</ele>
        <time>2026-08-29T12:10:21.000Z</time>
    </trkpt>
    <trkpt lat="60.2538209036" lon="30.4778521881">
        <ele>76.6</ele>
        <time>2026-08-29T12:10:41.000Z</time>
    </trkpt>
    <trkpt lat="60.2538238373" lon="30.477872137">
        <ele>76.6</ele>
        <time>2026-08-29T12:11:00.000Z</time>
    </trkpt>
    <trkpt lat="60.2538084146" lon="30.477944389">
        <ele>76.6</ele>
        <time>2026-08-29T12:11:24.000Z</time>
    </trkpt>
    <trkpt lat="60.2538135275" lon="30.4780584667">
        <ele>76.6</ele>
        <time>2026-08-29T12:11:38.000Z</time>
    </trkpt>
    <trkpt lat="60.2538463846" lon="30.47813382">
        <ele>76.6</ele>
        <time>2026-08-29T12:11:51.000Z</time>
    </trkpt>
    <trkpt lat="60.2538779005" lon="30.4781530984">
        <ele>76.6</ele>
        <time>2026-08-29T12:12:04.000Z</time>
    </trkpt>
    <trkpt lat="60.25395317" lon="30.4782401863">
        <ele>76.6</ele>
        <time>2026-08-29T12:12:18.000Z</time>
    </trkpt>
    <trkpt lat="60.2540209796" lon="30.478451997">
        <ele>76.1</ele>
        <time>2026-08-29T12:12:32.000Z</time>
    </trkpt>
    <trkpt lat="60.2540187165" lon="30.4784747958">
        <ele>76.1</ele>
        <time>2026-08-29T12:12:54.000Z</time>
    </trkpt>
    <trkpt lat="60.2539991029" lon="30.478515951">
        <ele>76.6</ele>
        <time>2026-08-29T12:13:13.000Z</time>
    </trkpt>
    <trkpt lat="60.2540162019" lon="30.4785361513">
        <ele>76.6</ele>
        <time>2026-08-29T12:13:41.000Z</time>
    </trkpt>
    <trkpt lat="60.2540224046" lon="30.4785306193">
        <ele>76.6</ele>
        <time>2026-08-29T12:14:10.000Z</time>
    </trkpt>
    <trkpt lat="60.2540245" lon="30.4785278533">
        <ele>76.6</ele>
        <time>2026-08-29T12:14:32.000Z</time>
    </trkpt>
    <trkpt lat="60.2540353965" lon="30.4785281885">
        <ele>76.6</ele>
        <time>2026-08-29T12:14:54.000Z</time>
    </trkpt>
    <trkpt lat="60.2540523279" lon="30.4785348941">
        <ele>76.6</ele>
        <time>2026-08-29T12:15:24.000Z</time>
    </trkpt>
    <trkpt lat="60.2540797368" lon="30.4785129335">
        <ele>76.6</ele>
        <time>2026-08-29T12:15:48.000Z</time>
    </trkpt>
    <trkpt lat="60.2540821675" lon="30.4785122629">
        <ele>76.6</ele>
        <time>2026-08-29T12:16:07.000Z</time>
    </trkpt>
    <trkpt lat="60.2540746238" lon="30.4785472155">
        <ele>76.6</ele>
        <time>2026-08-29T12:16:19.000Z</time>
    </trkpt>
    <trkpt lat="60.2540242486" lon="30.4786332976">
        <ele>76.6</ele>
        <time>2026-08-29T12:16:31.000Z</time>
    </trkpt>
    <trkpt lat="60.2540322114" lon="30.4786467087">
        <ele>76.6</ele>
        <time>2026-08-29T12:16:47.000Z</time>
    </trkpt>
    <trkpt lat="60.2539998572" lon="30.47873036">
        <ele>76.6</ele>
        <time>2026-08-29T12:17:01.000Z</time>
    </trkpt>
    <trkpt lat="60.2539909724" lon="30.4788417555">
        <ele>76.6</ele>
        <time>2026-08-29T12:17:14.000Z</time>
    </trkpt>
    <trkpt lat="60.2539983485" lon="30.4788917117">
        <ele>76.6</ele>
        <time>2026-08-29T12:17:25.000Z</time>
    </trkpt>
    <trkpt lat="60.2539083268" lon="30.4791193642">
        <ele>76.6</ele>
        <time>2026-08-29T12:17:40.000Z</time>
    </trkpt>
    <trkpt lat="60.2538838517" lon="30.4791776184">
        <ele>76.6</ele>
        <time>2026-08-29T12:17:52.000Z</time>
    </trkpt>
    <trkpt lat="60.2538235858" lon="30.47926764">
        <ele>76.6</ele>
        <time>2026-08-29T12:18:02.000Z</time>
    </trkpt>
    <trkpt lat="60.2537214942" lon="30.4793865792">
        <ele>76.6</ele>
        <time>2026-08-29T12:18:15.000Z</time>
    </trkpt>
    <trkpt lat="60.2536713704" lon="30.4795595817">
        <ele>76.6</ele>
        <time>2026-08-29T12:18:28.000Z</time>
    </trkpt>
    <trkpt lat="60.253635915" lon="30.4796180874">
        <ele>77.0</ele>
        <time>2026-08-29T12:18:40.000Z</time>
    </trkpt>
    <trkpt lat="60.2536354959" lon="30.4796251282">
        <ele>77.0</ele>
        <time>2026-08-29T12:19:00.000Z</time>
    </trkpt>
    <trkpt lat="60.2536285389" lon="30.4796306603">
        <ele>77.0</ele>
        <time>2026-08-29T12:19:16.000Z</time>
    </trkpt>
    <trkpt lat="60.2536214981" lon="30.4796298221">
        <ele>77.0</ele>
        <time>2026-08-29T12:19:42.000Z</time>
    </trkpt>
    <trkpt lat="60.2536082547" lon="30.4795858171">
        <ele>77.0</ele>
        <time>2026-08-29T12:20:00.000Z</time>
    </trkpt>
    <trkpt lat="60.2536043152" lon="30.4795718193">
        <ele>77.0</ele>
        <time>2026-08-29T12:20:02.000Z</time>
    </trkpt>
    <trkpt lat="60.2535841987" lon="30.4794138204">
        <ele>77.0</ele>
        <time>2026-08-29T12:20:12.000Z</time>
    </trkpt>
    <trkpt lat="60.253557628" lon="30.4792740941">
        <ele>77.0</ele>
        <time>2026-08-29T12:20:23.000Z</time>
    </trkpt>
    <trkpt lat="60.2535191551" lon="30.4791607708">
        <ele>76.1</ele>
        <time>2026-08-29T12:20:34.000Z</time>
    </trkpt>
    <trkpt lat="60.2534660138" lon="30.4790677316">
        <ele>76.1</ele>
        <time>2026-08-29T12:20:48.000Z</time>
    </trkpt>
    <trkpt lat="60.2534591407" lon="30.4790081363">
        <ele>76.1</ele>
        <time>2026-08-29T12:20:57.000Z</time>
    </trkpt>
    <trkpt lat="60.2534675226" lon="30.4789800569">
        <ele>76.1</ele>
        <time>2026-08-29T12:21:10.000Z</time>
    </trkpt>
    <trkpt lat="60.253474731" lon="30.4789436795">
        <ele>76.1</ele>
        <time>2026-08-29T12:21:22.000Z</time>
    </trkpt>
    <trkpt lat="60.253451094" lon="30.478858687">
        <ele>76.1</ele>
        <time>2026-08-29T12:21:43.000Z</time>
    </trkpt>
    <trkpt lat="60.2534557879" lon="30.4788118321">
        <ele>76.1</ele>
        <time>2026-08-29T12:21:49.000Z</time>
    </trkpt>
    <trkpt lat="60.2534624096" lon="30.4787775502">
        <ele>76.1</ele>
        <time>2026-08-29T12:21:51.000Z</time>
    </trkpt>
    <trkpt lat="60.2534476575" lon="30.4787533265">
        <ele>76.1</ele>
        <time>2026-08-29T12:21:53.000Z</time>
    </trkpt>
    <trkpt lat="60.2534025628" lon="30.4786718544">
        <ele>76.1</ele>
        <time>2026-08-29T12:22:08.000Z</time>
    </trkpt>
    <trkpt lat="60.2533961087" lon="30.4786727764">
        <ele>76.1</ele>
        <time>2026-08-29T12:22:19.000Z</time>
    </trkpt>
    <trkpt lat="60.2533858828" lon="30.4786602035">
        <ele>76.1</ele>
        <time>2026-08-29T12:22:36.000Z</time>
    </trkpt>
    <trkpt lat="60.2533569653" lon="30.4785844311">
        <ele>76.1</ele>
        <time>2026-08-29T12:22:45.000Z</time>
    </trkpt>
    <trkpt lat="60.253353864" lon="30.4785559326">
        <ele>75.6</ele>
        <time>2026-08-29T12:22:57.000Z</time>
    </trkpt>
    <trkpt lat="60.2533448115" lon="30.4785166215">
        <ele>75.6</ele>
        <time>2026-08-29T12:23:10.000Z</time>
    </trkpt>
    <trkpt lat="60.2533569653" lon="30.4784145299">
        <ele>75.6</ele>
        <time>2026-08-29T12:23:20.000Z</time>
    </trkpt>
    <trkpt lat="60.2533367649" lon="30.4783258494">
        <ele>75.6</ele>
        <time>2026-08-29T12:23:32.000Z</time>
    </trkpt>
    <trkpt lat="60.2533276286" lon="30.4783007875">
        <ele>75.6</ele>
        <time>2026-08-29T12:23:44.000Z</time>
    </trkpt>
    <trkpt lat="60.2533146366" lon="30.4782781564">
        <ele>75.6</ele>
        <time>2026-08-29T12:24:04.000Z</time>
    </trkpt>
    <trkpt lat="60.2533152234" lon="30.4782790784">
        <ele>75.6</ele>
        <time>2026-08-29T12:24:26.000Z</time>
    </trkpt>
    <trkpt lat="60.2533145528" lon="30.4782789107">
        <ele>75.6</ele>
        <time>2026-08-29T12:24:50.000Z</time>
    </trkpt>
    <trkpt lat="60.2533205878" lon="30.4782973509">
        <ele>75.6</ele>
        <time>2026-08-29T12:25:02.000Z</time>
    </trkpt>
    <trkpt lat="60.2533116192" lon="30.4782897234">
        <ele>75.6</ele>
        <time>2026-08-29T12:25:28.000Z</time>
    </trkpt>
    <trkpt lat="60.2533106133" lon="30.4782802518">
        <ele>75.6</ele>
        <time>2026-08-29T12:25:47.000Z</time>
    </trkpt>
    <trkpt lat="60.2533099428" lon="30.4782765638">
        <ele>75.6</ele>
        <time>2026-08-29T12:26:07.000Z</time>
    </trkpt>
    <trkpt lat="60.2533183247" lon="30.4782720376">
        <ele>75.6</ele>
        <time>2026-08-29T12:26:19.000Z</time>
    </trkpt>
    <trkpt lat="60.2533241082" lon="30.4781799205">
        <ele>75.6</ele>
        <time>2026-08-29T12:26:32.000Z</time>
    </trkpt>
    <trkpt lat="60.2533095237" lon="30.4780580476">
        <ele>75.6</ele>
        <time>2026-08-29T12:26:42.000Z</time>
    </trkpt>
    <trkpt lat="60.2532836236" lon="30.4779449757">
        <ele>75.6</ele>
        <time>2026-08-29T12:26:52.000Z</time>
    </trkpt>
    <trkpt lat="60.2532621659" lon="30.477857301">
        <ele>75.6</ele>
        <time>2026-08-29T12:27:02.000Z</time>
    </trkpt>
    <trkpt lat="60.2532391995" lon="30.4777915869">
        <ele>75.6</ele>
        <time>2026-08-29T12:27:10.000Z</time>
    </trkpt>
    <trkpt lat="60.2532362659" lon="30.4777794331">
        <ele>75.6</ele>
        <time>2026-08-29T12:27:11.000Z</time>
    </trkpt>
    <trkpt lat="60.25323526" lon="30.4777407926">
        <ele>75.6</ele>
        <time>2026-08-29T12:27:20.000Z</time>
    </trkpt>
    <trkpt lat="60.2531924285" lon="30.4777262919">
        <ele>75.6</ele>
        <time>2026-08-29T12:27:32.000Z</time>
    </trkpt>
    <trkpt lat="60.2531566378" lon="30.477657225">
        <ele>75.6</ele>
        <time>2026-08-29T12:27:44.000Z</time>
    </trkpt>
    <trkpt lat="60.2530947793" lon="30.4775519483">
        <ele>75.6</ele>
        <time>2026-08-29T12:27:55.000Z</time>
    </trkpt>
    <trkpt lat="60.2530336753" lon="30.47752521">
        <ele>75.6</ele>
        <time>2026-08-29T12:28:06.000Z</time>
    </trkpt>
    <trkpt lat="60.2529361099" lon="30.4774807859">
        <ele>75.6</ele>
        <time>2026-08-29T12:28:19.000Z</time>
    </trkpt>
    <trkpt lat="60.2529094554" lon="30.4774827138">
        <ele>75.6</ele>
        <time>2026-08-29T12:28:30.000Z</time>
    </trkpt>
    <trkpt lat="60.2528834715" lon="30.4774128925">
        <ele>75.6</ele>
        <time>2026-08-29T12:28:42.000Z</time>
    </trkpt>
    <trkpt lat="60.2528817113" lon="30.4773877468">
        <ele>75.6</ele>
        <time>2026-08-29T12:28:48.000Z</time>
    </trkpt>
    <trkpt lat="60.2528080344" lon="30.4773295764">
        <ele>75.6</ele>
        <time>2026-08-29T12:28:58.000Z</time>
    </trkpt>
    <trkpt lat="60.2527858224" lon="30.47723528">
        <ele>75.6</ele>
        <time>2026-08-29T12:29:08.000Z</time>
    </trkpt>
    <trkpt lat="60.2527993172" lon="30.4772045184">
        <ele>75.6</ele>
        <time>2026-08-29T12:29:20.000Z</time>
    </trkpt>
    <trkpt lat="60.2528066933" lon="30.4771665484">
        <ele>75.6</ele>
        <time>2026-08-29T12:29:32.000Z</time>
    </trkpt>
    <trkpt lat="60.2528036758" lon="30.4771497007">
        <ele>76.6</ele>
        <time>2026-08-29T12:29:36.000Z</time>
    </trkpt>
    <trkpt lat="60.2527941205" lon="30.4770234693">
        <ele>76.6</ele>
        <time>2026-08-29T12:29:47.000Z</time>
    </trkpt>
    <trkpt lat="60.2527867444" lon="30.4769720882">
        <ele>76.6</ele>
        <time>2026-08-29T12:29:54.000Z</time>
    </trkpt>
    <trkpt lat="60.2527503669" lon="30.4769074637">
        <ele>76.6</ele>
        <time>2026-08-29T12:29:59.000Z</time>
    </trkpt>
    <trkpt lat="60.25272673" lon="30.4768514726">
        <ele>76.6</ele>
        <time>2026-08-29T12:30:02.000Z</time>
    </trkpt>
    <trkpt lat="60.2527264785" lon="30.4767039511">
        <ele>76.6</ele>
        <time>2026-08-29T12:30:15.000Z</time>
    </trkpt>
    <trkpt lat="60.2527309209" lon="30.476676207">
        <ele>76.6</ele>
        <time>2026-08-29T12:30:31.000Z</time>
    </trkpt>
    <trkpt lat="60.2527310047" lon="30.4766440205">
        <ele>76.6</ele>
        <time>2026-08-29T12:30:51.000Z</time>
    </trkpt>
    <trkpt lat="60.2527217846" lon="30.4765047971">
        <ele>76.6</ele>
        <time>2026-08-29T12:30:59.000Z</time>
    </trkpt>
    <trkpt lat="60.2527244668" lon="30.4764110874">
        <ele>76.6</ele>
        <time>2026-08-29T12:31:13.000Z</time>
    </trkpt>
    <trkpt lat="60.2527339384" lon="30.4762980156">
        <ele>76.6</ele>
        <time>2026-08-29T12:31:20.000Z</time>
    </trkpt>
    <trkpt lat="60.2526708227" lon="30.4761649109">
        <ele>76.6</ele>
        <time>2026-08-29T12:31:32.000Z</time>
    </trkpt>
    <trkpt lat="60.2526341937" lon="30.47605603">
        <ele>76.6</ele>
        <time>2026-08-29T12:31:45.000Z</time>
    </trkpt>
    <trkpt lat="60.2526079584" lon="30.4760593828">
        <ele>76.6</ele>
        <time>2026-08-29T12:31:56.000Z</time>
    </trkpt>
    <trkpt lat="60.2525790408" lon="30.4761043098">
        <ele>76.6</ele>
        <time>2026-08-29T12:32:08.000Z</time>
    </trkpt>
    <trkpt lat="60.2525471058" lon="30.4761296231">
        <ele>76.6</ele>
        <time>2026-08-29T12:32:20.000Z</time>
    </trkpt>
    <trkpt lat="60.2524880134" lon="30.4761152063">
        <ele>76.6</ele>
        <time>2026-08-29T12:32:30.000Z</time>
    </trkpt>
    <trkpt lat="60.2524000872" lon="30.4760409426">
        <ele>76.6</ele>
        <time>2026-08-29T12:32:41.000Z</time>
    </trkpt>
    <trkpt lat="60.2523564175" lon="30.4759979434">
        <ele>76.6</ele>
        <time>2026-08-29T12:32:56.000Z</time>
    </trkpt>
    <trkpt lat="60.2523559984" lon="30.4759808443">
        <ele>76.6</ele>
        <time>2026-08-29T12:33:27.000Z</time>
    </trkpt>
    <trkpt lat="60.2523498796" lon="30.475966176">
        <ele>76.6</ele>
        <time>2026-08-29T12:33:53.000Z</time>
    </trkpt>
    <trkpt lat="60.2523474488" lon="30.4759772401">
        <ele>76.6</ele>
        <time>2026-08-29T12:34:16.000Z</time>
    </trkpt>
    <trkpt lat="60.2523388993" lon="30.4759908188">
        <ele>76.6</ele>
        <time>2026-08-29T12:34:42.000Z</time>
    </trkpt>
    <trkpt lat="60.252335798" lon="30.4759747256">
        <ele>76.6</ele>
        <time>2026-08-29T12:34:57.000Z</time>
    </trkpt>
    <trkpt lat="60.2523219679" lon="30.4759362526">
        <ele>76.6</ele>
        <time>2026-08-29T12:35:18.000Z</time>
    </trkpt>
    <trkpt lat="60.2522788849" lon="30.4758502543">
        <ele>76.6</ele>
        <time>2026-08-29T12:35:32.000Z</time>
    </trkpt>
    <trkpt lat="60.2522711735" lon="30.4758324008">
        <ele>76.6</ele>
        <time>2026-08-29T12:35:53.000Z</time>
    </trkpt>
    <trkpt lat="60.2522656415" lon="30.4758267011">
        <ele>76.6</ele>
        <time>2026-08-29T12:36:20.000Z</time>
    </trkpt>
    <trkpt lat="60.2522603609" lon="30.4758401122">
        <ele>76.6</ele>
        <time>2026-08-29T12:36:50.000Z</time>
    </trkpt>
    <trkpt lat="60.2522057947" lon="30.475900881">
        <ele>76.6</ele>
        <time>2026-08-29T12:37:03.000Z</time>
    </trkpt>
    <trkpt lat="60.2521654777" lon="30.4759306367">
        <ele>77.5</ele>
        <time>2026-08-29T12:37:15.000Z</time>
    </trkpt>
    <trkpt lat="60.2521292679" lon="30.4758591391">
        <ele>77.5</ele>
        <time>2026-08-29T12:37:26.000Z</time>
    </trkpt>
    <trkpt lat="60.2520462871" lon="30.4757486656">
        <ele>77.5</ele>
        <time>2026-08-29T12:37:37.000Z</time>
    </trkpt>
    <trkpt lat="60.252000019" lon="30.4757037386">
        <ele>77.5</ele>
        <time>2026-08-29T12:37:42.000Z</time>
    </trkpt>
    <trkpt lat="60.2519689221" lon="30.4757104442">
        <ele>77.5</ele>
        <time>2026-08-29T12:37:48.000Z</time>
    </trkpt>
    <trkpt lat="60.2519725263" lon="30.4756863881">
        <ele>77.5</ele>
        <time>2026-08-29T12:37:58.000Z</time>
    </trkpt>
    <trkpt lat="60.2520390786" lon="30.4757623281">
        <ele>77.5</ele>
        <time>2026-08-29T12:38:09.000Z</time>
    </trkpt>
    <trkpt lat="60.2520600334" lon="30.4758944269">
        <ele>77.5</ele>
        <time>2026-08-29T12:38:23.000Z</time>
    </trkpt>
    <trkpt lat="60.2520028688" lon="30.4759764019">
        <ele>77.0</ele>
        <time>2026-08-29T12:38:34.000Z</time>
    </trkpt>
    <trkpt lat="60.2519482188" lon="30.4760047328">
        <ele>77.0</ele>
        <time>2026-08-29T12:38:45.000Z</time>
    </trkpt>
    <trkpt lat="60.2518921439" lon="30.4760194011">
        <ele>77.0</ele>
        <time>2026-08-29T12:38:54.000Z</time>
    </trkpt>
    <trkpt lat="60.2517996076" lon="30.4760221671">
        <ele>77.0</ele>
        <time>2026-08-29T12:39:04.000Z</time>
    </trkpt>
    <trkpt lat="60.2517419402" lon="30.4760336503">
        <ele>77.0</ele>
        <time>2026-08-29T12:39:16.000Z</time>
    </trkpt>
    <trkpt lat="60.2516778186" lon="30.4760334827">
        <ele>77.0</ele>
        <time>2026-08-29T12:39:27.000Z</time>
    </trkpt>
    <trkpt lat="60.2516590431" lon="30.4760853667">
        <ele>75.6</ele>
        <time>2026-08-29T12:39:37.000Z</time>
    </trkpt>
    <trkpt lat="60.2516403515" lon="30.4760979395">
        <ele>76.6</ele>
        <time>2026-08-29T12:39:52.000Z</time>
    </trkpt>
    <trkpt lat="60.2516267728" lon="30.4761084169">
        <ele>77.5</ele>
        <time>2026-08-29T12:40:22.000Z</time>
    </trkpt>
    <trkpt lat="60.2516260184" lon="30.4761134461">
        <ele>77.5</ele>
        <time>2026-08-29T12:40:42.000Z</time>
    </trkpt>
    <trkpt lat="60.2516312152" lon="30.4761197325">
        <ele>77.5</ele>
        <time>2026-08-29T12:40:58.000Z</time>
    </trkpt>
    <trkpt lat="60.2516393457" lon="30.4761436209">
        <ele>77.5</ele>
        <time>2026-08-29T12:41:15.000Z</time>
    </trkpt>
    <trkpt lat="60.2516597137" lon="30.4761712812">
        <ele>77.5</ele>
        <time>2026-08-29T12:41:30.000Z</time>
    </trkpt>
    <trkpt lat="60.2516713645" lon="30.4761842731">
        <ele>77.5</ele>
        <time>2026-08-29T12:41:47.000Z</time>
    </trkpt>
    <trkpt lat="60.2516745497" lon="30.4761924036">
        <ele>77.5</ele>
        <time>2026-08-29T12:42:10.000Z</time>
    </trkpt>
    <trkpt lat="60.2516779862" lon="30.4762530886">
        <ele>77.5</ele>
        <time>2026-08-29T12:42:26.000Z</time>
    </trkpt>
    <trkpt lat="60.2516895533" lon="30.4762706067">
        <ele>77.5</ele>
        <time>2026-08-29T12:42:42.000Z</time>
    </trkpt>
    <trkpt lat="60.2516874578" lon="30.4762908071">
        <ele>77.5</ele>
        <time>2026-08-29T12:43:05.000Z</time>
    </trkpt>
    <trkpt lat="60.2516805008" lon="30.4762968421">
        <ele>77.5</ele>
        <time>2026-08-29T12:43:22.000Z</time>
    </trkpt>
    <trkpt lat="60.2516815905" lon="30.4762935732">
        <ele>77.5</ele>
        <time>2026-08-29T12:43:38.000Z</time>
    </trkpt>
    <trkpt lat="60.2516925707" lon="30.4762968421">
        <ele>77.5</ele>
        <time>2026-08-29T12:43:56.000Z</time>
    </trkpt>
    <trkpt lat="60.2517007012" lon="30.4762959201">
        <ele>77.5</ele>
        <time>2026-08-29T12:44:19.000Z</time>
    </trkpt>
    <trkpt lat="60.2516870387" lon="30.4763161205">
        <ele>77.5</ele>
        <time>2026-08-29T12:44:35.000Z</time>
    </trkpt>
    <trkpt lat="60.2516851109" lon="30.4763100017">
        <ele>77.5</ele>
        <time>2026-08-29T12:44:56.000Z</time>
    </trkpt>
    <trkpt lat="60.2516789921" lon="30.4763204791">
        <ele>77.5</ele>
        <time>2026-08-29T12:45:21.000Z</time>
    </trkpt>
    <trkpt lat="60.2516806684" lon="30.4763219878">
        <ele>78.0</ele>
        <time>2026-08-29T12:45:48.000Z</time>
    </trkpt>
    <trkpt lat="60.2516811714" lon="30.4763242509">
        <ele>78.0</ele>
        <time>2026-08-29T12:46:09.000Z</time>
    </trkpt>
    <trkpt lat="60.2516856138" lon="30.4763118457">
        <ele>77.0</ele>
        <time>2026-08-29T12:46:41.000Z</time>
    </trkpt>
    <trkpt lat="60.2516832668" lon="30.4763067327">
        <ele>75.6</ele>
        <time>2026-08-29T12:47:07.000Z</time>
    </trkpt>
    <trkpt lat="60.2516872063" lon="30.4762972612">
        <ele>77.0</ele>
        <time>2026-08-29T12:47:29.000Z</time>
    </trkpt>
    <trkpt lat="60.2516977675" lon="30.4763016198">
        <ele>77.0</ele>
        <time>2026-08-29T12:47:53.000Z</time>
    </trkpt>
    <trkpt lat="60.2517141122" lon="30.4762921482">
        <ele>77.5</ele>
        <time>2026-08-29T12:48:13.000Z</time>
    </trkpt>
    <trkpt lat="60.2517168783" lon="30.4762872029">
        <ele>77.5</ele>
        <time>2026-08-29T12:48:34.000Z</time>
    </trkpt>
    <trkpt lat="60.2517224941" lon="30.4762823414">
        <ele>78.0</ele>
        <time>2026-08-29T12:48:49.000Z</time>
    </trkpt>
    <trkpt lat="60.2517302055" lon="30.4762707744">
        <ele>78.0</ele>
        <time>2026-08-29T12:49:08.000Z</time>
    </trkpt>
    <trkpt lat="60.251731379" lon="30.4762713611">
        <ele>78.0</ele>
        <time>2026-08-29T12:49:11.000Z</time>
    </trkpt>
    <trkpt lat="60.2518175449" lon="30.476247808">
        <ele>78.0</ele>
        <time>2026-08-29T12:49:19.000Z</time>
    </trkpt>
    <trkpt lat="60.2518684231" lon="30.476206569">
        <ele>78.0</ele>
        <time>2026-08-29T12:49:23.000Z</time>
    </trkpt>
    <trkpt lat="60.25190413" lon="30.4761694372">
        <ele>78.0</ele>
        <time>2026-08-29T12:49:26.000Z</time>
    </trkpt>
    <trkpt lat="60.2519732807" lon="30.4761379212">
        <ele>78.0</ele>
        <time>2026-08-29T12:49:38.000Z</time>
    </trkpt>
    <trkpt lat="60.2519753762" lon="30.4761450458">
        <ele>78.0</ele>
        <time>2026-08-29T12:49:40.000Z</time>
    </trkpt>
    <trkpt lat="60.2519996837" lon="30.4761681799">
        <ele>78.0</ele>
        <time>2026-08-29T12:49:44.000Z</time>
    </trkpt>
    <trkpt lat="60.252120886" lon="30.4762525856">
        <ele>77.5</ele>
        <time>2026-08-29T12:49:56.000Z</time>
    </trkpt>
    <trkpt lat="60.2522113267" lon="30.47637471">
        <ele>78.0</ele>
        <time>2026-08-29T12:50:07.000Z</time>
    </trkpt>
    <trkpt lat="60.2522257436" lon="30.4765663203">
        <ele>78.0</ele>
        <time>2026-08-29T12:50:16.000Z</time>
    </trkpt>
    <trkpt lat="60.2521332912" lon="30.4767306894">
        <ele>78.0</ele>
        <time>2026-08-29T12:50:28.000Z</time>
    </trkpt>
    <trkpt lat="60.2521198802" lon="30.4767260794">
        <ele>78.0</ele>
        <time>2026-08-29T12:50:42.000Z</time>
    </trkpt>
    <trkpt lat="60.2521275077" lon="30.4767958168">
        <ele>78.0</ele>
        <time>2026-08-29T12:50:54.000Z</time>
    </trkpt>
    <trkpt lat="60.252154246" lon="30.4769771174">
        <ele>77.5</ele>
        <time>2026-08-29T12:51:04.000Z</time>
    </trkpt>
    <trkpt lat="60.2521113306" lon="30.4772323463">
        <ele>77.5</ele>
        <time>2026-08-29T12:51:15.000Z</time>
    </trkpt>
    <trkpt lat="60.2521140967" lon="30.4772874154">
        <ele>77.5</ele>
        <time>2026-08-29T12:51:17.000Z</time>
    </trkpt>
    <trkpt lat="60.2521716803" lon="30.4773920216">
        <ele>78.0</ele>
        <time>2026-08-29T12:51:29.000Z</time>
    </trkpt>
    <trkpt lat="60.252175536" lon="30.4773978889">
        <ele>78.0</ele>
        <time>2026-08-29T12:51:36.000Z</time>
    </trkpt>
    <trkpt lat="60.252145445" lon="30.4773878306">
        <ele>78.0</ele>
        <time>2026-08-29T12:51:42.000Z</time>
    </trkpt>
    <trkpt lat="60.2521012723" lon="30.4775083624">
        <ele>78.0</ele>
        <time>2026-08-29T12:51:53.000Z</time>
    </trkpt>
    <trkpt lat="60.2520436887" lon="30.4776038323">
        <ele>78.0</ele>
        <time>2026-08-29T12:52:04.000Z</time>
    </trkpt>
    <trkpt lat="60.2520031203" lon="30.4776496813">
        <ele>78.0</ele>
        <time>2026-08-29T12:52:14.000Z</time>
    </trkpt>
    <trkpt lat="60.2519622166" lon="30.477730399">
        <ele>77.5</ele>
        <time>2026-08-29T12:52:28.000Z</time>
    </trkpt>
    <trkpt lat="60.2519572712" lon="30.4776993021">
        <ele>77.5</ele>
        <time>2026-08-29T12:52:45.000Z</time>
    </trkpt>
    <trkpt lat="60.2519628871" lon="30.4776930157">
        <ele>77.5</ele>
        <time>2026-08-29T12:52:47.000Z</time>
    </trkpt>
    <trkpt lat="60.2519892063" lon="30.4775946122">
        <ele>77.5</ele>
        <time>2026-08-29T12:52:55.000Z</time>
    </trkpt>
    <trkpt lat="60.2520727739" lon="30.4774050135">
        <ele>77.5</ele>
        <time>2026-08-29T12:53:06.000Z</time>
    </trkpt>
    <trkpt lat="60.2520848438" lon="30.4774083663">
        <ele>77.5</ele>
        <time>2026-08-29T12:53:19.000Z</time>
    </trkpt>
    <trkpt lat="60.252082916" lon="30.477412222">
        <ele>77.5</ele>
        <time>2026-08-29T12:53:22.000Z</time>
    </trkpt>
    <trkpt lat="60.2520209737" lon="30.4775231145">
        <ele>74.2</ele>
        <time>2026-08-29T12:53:32.000Z</time>
    </trkpt>
    <trkpt lat="60.2519700117" lon="30.4775929358">
        <ele>77.5</ele>
        <time>2026-08-29T12:53:44.000Z</time>
    </trkpt>
    <trkpt lat="60.2519182954" lon="30.4776671994">
        <ele>78.0</ele>
        <time>2026-08-29T12:53:54.000Z</time>
    </trkpt>
    <trkpt lat="60.2518740389" lon="30.4777873121">
        <ele>76.6</ele>
        <time>2026-08-29T12:54:05.000Z</time>
    </trkpt>
    <trkpt lat="60.2518338896" lon="30.4779084306">
        <ele>76.1</ele>
        <time>2026-08-29T12:54:14.000Z</time>
    </trkpt>
    <trkpt lat="60.2518088277" lon="30.4779136274">
        <ele>77.0</ele>
        <time>2026-08-29T12:54:25.000Z</time>
    </trkpt>
    <trkpt lat="60.2517606318" lon="30.4779112805">
        <ele>77.0</ele>
        <time>2026-08-29T12:54:31.000Z</time>
    </trkpt>
    <trkpt lat="60.2517435327" lon="30.4779071733">
        <ele>77.0</ele>
        <time>2026-08-29T12:54:34.000Z</time>
    </trkpt>
    <trkpt lat="60.251663737" lon="30.4779360071">
        <ele>77.0</ele>
        <time>2026-08-29T12:54:46.000Z</time>
    </trkpt>
    <trkpt lat="60.2516140323" lon="30.4779262841">
        <ele>77.0</ele>
        <time>2026-08-29T12:54:50.000Z</time>
    </trkpt>
    <trkpt lat="60.2515214961" lon="30.4780049063">
        <ele>77.5</ele>
        <time>2026-08-29T12:55:02.000Z</time>
    </trkpt>
    <trkpt lat="60.251522921" lon="30.4780147132">
        <ele>77.5</ele>
        <time>2026-08-29T12:55:16.000Z</time>
    </trkpt>
    <trkpt lat="60.2514713723" lon="30.4779526033">
        <ele>77.5</ele>
        <time>2026-08-29T12:55:27.000Z</time>
    </trkpt>
    <trkpt lat="60.251461817" lon="30.4779399466">
        <ele>77.5</ele>
        <time>2026-08-29T12:55:29.000Z</time>
    </trkpt>
    <trkpt lat="60.2514397725" lon="30.4779275414">
        <ele>77.5</ele>
        <time>2026-08-29T12:55:31.000Z</time>
    </trkpt>
    <trkpt lat="60.2513480745" lon="30.477959644">
        <ele>77.0</ele>
        <time>2026-08-29T12:55:41.000Z</time>
    </trkpt>
    <trkpt lat="60.2513431292" lon="30.4780387692">
        <ele>77.0</ele>
        <time>2026-08-29T12:55:52.000Z</time>
    </trkpt>
    <trkpt lat="60.251318235" lon="30.4781254381">
        <ele>77.0</ele>
        <time>2026-08-29T12:56:01.000Z</time>
    </trkpt>
    <trkpt lat="60.2512824442" lon="30.4781225882">
        <ele>77.0</ele>
        <time>2026-08-29T12:56:10.000Z</time>
    </trkpt>
    <trkpt lat="60.2512422111" lon="30.4781888053">
        <ele>77.0</ele>
        <time>2026-08-29T12:56:22.000Z</time>
    </trkpt>
    <trkpt lat="60.2512054984" lon="30.4782480653">
        <ele>77.0</ele>
        <time>2026-08-29T12:56:30.000Z</time>
    </trkpt>
    <trkpt lat="60.2511691209" lon="30.4783027153">
        <ele>77.0</ele>
        <time>2026-08-29T12:56:42.000Z</time>
    </trkpt>
    <trkpt lat="60.2511086036" lon="30.4783536773">
        <ele>77.0</ele>
        <time>2026-08-29T12:56:54.000Z</time>
    </trkpt>
    <trkpt lat="60.2510517742" lon="30.4783902224">
        <ele>77.0</ele>
        <time>2026-08-29T12:57:04.000Z</time>
    </trkpt>
    <trkpt lat="60.251025958" lon="30.478429785">
        <ele>77.0</ele>
        <time>2026-08-29T12:57:15.000Z</time>
    </trkpt>
    <trkpt lat="60.2510070149" lon="30.478448309">
        <ele>77.0</ele>
        <time>2026-08-29T12:57:28.000Z</time>
    </trkpt>
    <trkpt lat="60.2510001417" lon="30.4784715269">
        <ele>77.0</ele>
        <time>2026-08-29T12:57:42.000Z</time>
    </trkpt>
    <trkpt lat="60.2509848028" lon="30.478515029">
        <ele>77.0</ele>
        <time>2026-08-29T12:57:53.000Z</time>
    </trkpt>
    <trkpt lat="60.2509712242" lon="30.4785664938">
        <ele>77.0</ele>
        <time>2026-08-29T12:58:02.000Z</time>
    </trkpt>
    <trkpt lat="60.2509565558" lon="30.4786422662">
        <ele>77.0</ele>
        <time>2026-08-29T12:58:11.000Z</time>
    </trkpt>
    <trkpt lat="60.2509257942" lon="30.4787068907">
        <ele>77.0</ele>
        <time>2026-08-29T12:58:21.000Z</time>
    </trkpt>
    <trkpt lat="60.250893021" lon="30.4787569307">
        <ele>77.0</ele>
        <time>2026-08-29T12:58:30.000Z</time>
    </trkpt>
    <trkpt lat="60.2508898359" lon="30.4787695874">
        <ele>77.0</ele>
        <time>2026-08-29T12:58:33.000Z</time>
    </trkpt>
    <trkpt lat="60.2509031631" lon="30.4788292665">
        <ele>77.0</ele>
        <time>2026-08-29T12:58:37.000Z</time>
    </trkpt>
    <trkpt lat="60.2509208489" lon="30.4788945615">
        <ele>77.0</ele>
        <time>2026-08-29T12:58:41.000Z</time>
    </trkpt>
    <trkpt lat="60.2508511115" lon="30.4790115729">
        <ele>77.0</ele>
        <time>2026-08-29T12:58:56.000Z</time>
    </trkpt>
    <trkpt lat="60.2508138958" lon="30.4790617805">
        <ele>77.5</ele>
        <time>2026-08-29T12:59:06.000Z</time>
    </trkpt>
    <trkpt lat="60.2507798653" lon="30.4791167658">
        <ele>77.5</ele>
        <time>2026-08-29T12:59:17.000Z</time>
    </trkpt>
    <trkpt lat="60.2507584076" lon="30.4791729245">
        <ele>77.5</ele>
        <time>2026-08-29T12:59:26.000Z</time>
    </trkpt>
    <trkpt lat="60.2507465892" lon="30.4791886825">
        <ele>77.5</ele>
        <time>2026-08-29T12:59:28.000Z</time>
    </trkpt>
    <trkpt lat="60.2506812941" lon="30.4792372975">
        <ele>77.5</ele>
        <time>2026-08-29T12:59:41.000Z</time>
    </trkpt>
    <trkpt lat="60.2506276499" lon="30.4792637005">
        <ele>77.5</ele>
        <time>2026-08-29T12:59:53.000Z</time>
    </trkpt>
    <trkpt lat="60.2505703177" lon="30.4793966375">
        <ele>77.5</ele>
        <time>2026-08-29T13:00:03.000Z</time>
    </trkpt>
    <trkpt lat="60.2505489439" lon="30.4794763494">
        <ele>77.5</ele>
        <time>2026-08-29T13:00:14.000Z</time>
    </trkpt>
    <trkpt lat="60.2505415678" lon="30.4795095418">
        <ele>77.5</ele>
        <time>2026-08-29T13:00:20.000Z</time>
    </trkpt>
    <trkpt lat="60.2505148295" lon="30.4795688018">
        <ele>77.5</ele>
        <time>2026-08-29T13:00:31.000Z</time>
    </trkpt>
    <trkpt lat="60.2504865825" lon="30.4796185903">
        <ele>77.5</ele>
        <time>2026-08-29T13:00:39.000Z</time>
    </trkpt>
    <trkpt lat="60.2504521329" lon="30.4796898365">
        <ele>77.5</ele>
        <time>2026-08-29T13:00:53.000Z</time>
    </trkpt>
    <trkpt lat="60.2504092176" lon="30.47978363">
        <ele>77.5</ele>
        <time>2026-08-29T13:01:05.000Z</time>
    </trkpt>
    <trkpt lat="60.2503736783" lon="30.4798630904">
        <ele>77.5</ele>
        <time>2026-08-29T13:01:16.000Z</time>
    </trkpt>
    <trkpt lat="60.2503252309" lon="30.4799000546">
        <ele>77.5</ele>
        <time>2026-08-29T13:01:26.000Z</time>
    </trkpt>
    <trkpt lat="60.2502430044" lon="30.4799568001">
        <ele>77.5</ele>
        <time>2026-08-29T13:01:37.000Z</time>
    </trkpt>
    <trkpt lat="60.2502284199" lon="30.479942048">
        <ele>77.5</ele>
        <time>2026-08-29T13:01:43.000Z</time>
    </trkpt>
    <trkpt lat="60.2502060402" lon="30.4799586441">
        <ele>77.0</ele>
        <time>2026-08-29T13:01:55.000Z</time>
    </trkpt>
    <trkpt lat="60.2501927968" lon="30.4799718037">
        <ele>77.0</ele>
        <time>2026-08-29T13:01:59.000Z</time>
    </trkpt>
    <trkpt lat="60.2501536533" lon="30.4800298903">
        <ele>77.0</ele>
        <time>2026-08-29T13:02:05.000Z</time>
    </trkpt>
    <trkpt lat="60.2501140069" lon="30.4800308123">
        <ele>77.0</ele>
        <time>2026-08-29T13:02:08.000Z</time>
    </trkpt>
    <trkpt lat="60.2500259969" lon="30.4799859691">
        <ele>77.5</ele>
        <time>2026-08-29T13:02:20.000Z</time>
    </trkpt>
    <trkpt lat="60.2499772143" lon="30.480011953">
        <ele>77.5</ele>
        <time>2026-08-29T13:02:30.000Z</time>
    </trkpt>
    <trkpt lat="60.2499139309" lon="30.4800914973">
        <ele>77.5</ele>
        <time>2026-08-29T13:02:41.000Z</time>
    </trkpt>
    <trkpt lat="60.2498612925" lon="30.4801386874">
        <ele>77.5</ele>
        <time>2026-08-29T13:02:52.000Z</time>
    </trkpt>
    <trkpt lat="60.2498340514" lon="30.4801924992">
        <ele>77.5</ele>
        <time>2026-08-29T13:02:57.000Z</time>
    </trkpt>
    <trkpt lat="60.2498046309" lon="30.4803153779">
        <ele>77.5</ele>
        <time>2026-08-29T13:03:09.000Z</time>
    </trkpt>
    <trkpt lat="60.2497858554" lon="30.4803496599">
        <ele>77.5</ele>
        <time>2026-08-29T13:03:16.000Z</time>
    </trkpt>
    <trkpt lat="60.2497597039" lon="30.4803828523">
        <ele>77.5</ele>
        <time>2026-08-29T13:03:27.000Z</time>
    </trkpt>
    <trkpt lat="60.2497374918" lon="30.4804008733">
        <ele>77.5</ele>
        <time>2026-08-29T13:03:31.000Z</time>
    </trkpt>
    <trkpt lat="60.2496718615" lon="30.4804000352">
        <ele>77.5</ele>
        <time>2026-08-29T13:03:43.000Z</time>
    </trkpt>
    <trkpt lat="60.2496721968" lon="30.4804022145">
        <ele>77.5</ele>
        <time>2026-08-29T13:03:52.000Z</time>
    </trkpt>
    <trkpt lat="60.249660043" lon="30.4804007895">
        <ele>77.5</ele>
        <time>2026-08-29T13:04:00.000Z</time>
    </trkpt>
    <trkpt lat="60.2496319637" lon="30.4803869594">
        <ele>77.5</ele>
        <time>2026-08-29T13:04:07.000Z</time>
    </trkpt>
    <trkpt lat="60.249585947" lon="30.480470024">
        <ele>77.5</ele>
        <time>2026-08-29T13:04:22.000Z</time>
    </trkpt>
    <trkpt lat="60.2495601308" lon="30.4805265181">
        <ele>77.5</ele>
        <time>2026-08-29T13:04:33.000Z</time>
    </trkpt>
    <trkpt lat="60.2494917344" lon="30.4806120973">
        <ele>77.5</ele>
        <time>2026-08-29T13:04:45.000Z</time>
    </trkpt>
    <trkpt lat="60.2494718693" lon="30.4806442">
        <ele>77.5</ele>
        <time>2026-08-29T13:04:55.000Z</time>
    </trkpt>
    <trkpt lat="60.2494217455" lon="30.480617797">
        <ele>77.5</ele>
        <time>2026-08-29T13:05:05.000Z</time>
    </trkpt>
    <trkpt lat="60.2493691072" lon="30.4806597903">
        <ele>77.5</ele>
        <time>2026-08-29T13:05:16.000Z</time>
    </trkpt>
    <trkpt lat="60.2493359987" lon="30.4806875344">
        <ele>77.5</ele>
        <time>2026-08-29T13:05:31.000Z</time>
    </trkpt>
    <trkpt lat="60.2493227553" lon="30.4806915578">
        <ele>77.5</ele>
        <time>2026-08-29T13:05:39.000Z</time>
    </trkpt>
    <trkpt lat="60.2492784988" lon="30.4807654023">
        <ele>77.5</ele>
        <time>2026-08-29T13:05:50.000Z</time>
    </trkpt>
    <trkpt lat="60.2492109407" lon="30.4808150232">
        <ele>77.5</ele>
        <time>2026-08-29T13:05:58.000Z</time>
    </trkpt>
    <trkpt lat="60.2491528541" lon="30.4809366446">
        <ele>77.5</ele>
        <time>2026-08-29T13:06:09.000Z</time>
    </trkpt>
    <trkpt lat="60.2491011377" lon="30.4810415022">
        <ele>77.5</ele>
        <time>2026-08-29T13:06:18.000Z</time>
    </trkpt>
    <trkpt lat="60.2490960248" lon="30.4810835794">
        <ele>77.5</ele>
        <time>2026-08-29T13:06:20.000Z</time>
    </trkpt>
    <trkpt lat="60.24907507" lon="30.4811600223">
        <ele>77.5</ele>
        <time>2026-08-29T13:06:26.000Z</time>
    </trkpt>
    <trkpt lat="60.2490436379" lon="30.4812667239">
        <ele>77.5</ele>
        <time>2026-08-29T13:06:33.000Z</time>
    </trkpt>
    <trkpt lat="60.2490331605" lon="30.4814571608">
        <ele>78.0</ele>
        <time>2026-08-29T13:06:44.000Z</time>
    </trkpt>
    <trkpt lat="60.2489526104" lon="30.4815500323">
        <ele>78.0</ele>
        <time>2026-08-29T13:06:55.000Z</time>
    </trkpt>
    <trkpt lat="60.2489317395" lon="30.4815653712">
        <ele>78.0</ele>
        <time>2026-08-29T13:06:57.000Z</time>
    </trkpt>
    <trkpt lat="60.248903241" lon="30.4815758485">
        <ele>78.0</ele>
        <time>2026-08-29T13:07:00.000Z</time>
    </trkpt>
    <trkpt lat="60.2488702163" lon="30.481612226">
        <ele>78.0</ele>
        <time>2026-08-29T13:07:06.000Z</time>
    </trkpt>
    <trkpt lat="60.2488666959" lon="30.4816558119">
        <ele>78.0</ele>
        <time>2026-08-29T13:07:08.000Z</time>
    </trkpt>
    <trkpt lat="60.2488190867" lon="30.4816610087">
        <ele>78.0</ele>
        <time>2026-08-29T13:07:19.000Z</time>
    </trkpt>
    <trkpt lat="60.2487802785" lon="30.4816772696">
        <ele>78.0</ele>
        <time>2026-08-29T13:07:23.000Z</time>
    </trkpt>
    <trkpt lat="60.2487259638" lon="30.4817416426">
        <ele>78.0</ele>
        <time>2026-08-29T13:07:31.000Z</time>
    </trkpt>
    <trkpt lat="60.2486993931" lon="30.4817457497">
        <ele>78.0</ele>
        <time>2026-08-29T13:07:33.000Z</time>
    </trkpt>
    <trkpt lat="60.2486375347" lon="30.4818189237">
        <ele>78.0</ele>
        <time>2026-08-29T13:07:42.000Z</time>
    </trkpt>
    <trkpt lat="60.2486289013" lon="30.4818444047">
        <ele>78.0</ele>
        <time>2026-08-29T13:07:46.000Z</time>
    </trkpt>
    <trkpt lat="60.248541981" lon="30.4819941893">
        <ele>78.0</ele>
        <time>2026-08-29T13:07:59.000Z</time>
    </trkpt>
    <trkpt lat="60.2484926954" lon="30.4820620827">
        <ele>78.0</ele>
        <time>2026-08-29T13:08:10.000Z</time>
    </trkpt>
    <trkpt lat="60.2484731656" lon="30.4821112845">
        <ele>78.0</ele>
        <time>2026-08-29T13:08:20.000Z</time>
    </trkpt>
    <trkpt lat="60.2484390512" lon="30.4822319001">
        <ele>78.0</ele>
        <time>2026-08-29T13:08:33.000Z</time>
    </trkpt>
    <trkpt lat="60.248396555" lon="30.4823128693">
        <ele>78.0</ele>
        <time>2026-08-29T13:08:45.000Z</time>
    </trkpt>
    <trkpt lat="60.2483862452" lon="30.4823812656">
        <ele>78.0</ele>
        <time>2026-08-29T13:08:58.000Z</time>
    </trkpt>
    <trkpt lat="60.2483346965" lon="30.4824673478">
        <ele>78.5</ele>
        <time>2026-08-29T13:09:08.000Z</time>
    </trkpt>
    <trkpt lat="60.2482739277" lon="30.4824937508">
        <ele>78.5</ele>
        <time>2026-08-29T13:09:14.000Z</time>
    </trkpt>
    <trkpt lat="60.2481574193" lon="30.4825401865">
        <ele>78.5</ele>
        <time>2026-08-29T13:09:24.000Z</time>
    </trkpt>
    <trkpt lat="60.248113079" lon="30.4826108459">
        <ele>78.5</ele>
        <time>2026-08-29T13:09:28.000Z</time>
    </trkpt>
    <trkpt lat="60.2480958961" lon="30.4826346505">
        <ele>78.5</ele>
        <time>2026-08-29T13:09:30.000Z</time>
    </trkpt>
    <trkpt lat="60.2480197046" lon="30.4827194754">
        <ele>79.0</ele>
        <time>2026-08-29T13:09:41.000Z</time>
    </trkpt>
    <trkpt lat="60.247977376" lon="30.4827212356">
        <ele>80.4</ele>
        <time>2026-08-29T13:09:52.000Z</time>
    </trkpt>
    <trkpt lat="60.2479248215" lon="30.4827929847">
        <ele>83.3</ele>
        <time>2026-08-29T13:10:00.000Z</time>
    </trkpt>
    <trkpt lat="60.2478017751" lon="30.4828550108">
        <ele>83.8</ele>
        <time>2026-08-29T13:10:12.000Z</time>
    </trkpt>
    <trkpt lat="60.2477543335" lon="30.4828180466">
        <ele>83.8</ele>
        <time>2026-08-29T13:10:18.000Z</time>
    </trkpt>
    <trkpt lat="60.2476965822" lon="30.482876217">
        <ele>83.8</ele>
        <time>2026-08-29T13:10:29.000Z</time>
    </trkpt>
    <trkpt lat="60.2476700954" lon="30.4828945734">
        <ele>83.8</ele>
        <time>2026-08-29T13:10:42.000Z</time>
    </trkpt>
    <trkpt lat="60.2476604562" lon="30.4829053022">
        <ele>84.3</ele>
        <time>2026-08-29T13:10:56.000Z</time>
    </trkpt>
    <trkpt lat="60.2476464584" lon="30.4829353094">
        <ele>84.7</ele>
        <time>2026-08-29T13:11:17.000Z</time>
    </trkpt>
    <trkpt lat="60.247646207" lon="30.4829479661">
        <ele>85.2</ele>
        <time>2026-08-29T13:11:37.000Z</time>
    </trkpt>
    <trkpt lat="60.2476615459" lon="30.482953582">
        <ele>85.2</ele>
        <time>2026-08-29T13:11:55.000Z</time>
    </trkpt>
    <trkpt lat="60.2476281859" lon="30.4830648098">
        <ele>85.2</ele>
        <time>2026-08-29T13:12:16.000Z</time>
    </trkpt>
    <trkpt lat="60.2476111706" lon="30.4831428453">
        <ele>86.2</ele>
        <time>2026-08-29T13:12:29.000Z</time>
    </trkpt>
    <trkpt lat="60.2476174571" lon="30.4831547476">
        <ele>86.2</ele>
        <time>2026-08-29T13:12:30.000Z</time>
    </trkpt>
    <trkpt lat="60.2476685867" lon="30.4832169414">
        <ele>86.2</ele>
        <time>2026-08-29T13:12:36.000Z</time>
    </trkpt>
    <trkpt lat="60.2476044651" lon="30.4833585117">
        <ele>86.2</ele>
        <time>2026-08-29T13:12:44.000Z</time>
    </trkpt>
    <trkpt lat="60.2475489769" lon="30.4835109785">
        <ele>86.2</ele>
        <time>2026-08-29T13:12:55.000Z</time>
    </trkpt>
    <trkpt lat="60.2474235836" lon="30.4836888425">
        <ele>86.7</ele>
        <time>2026-08-29T13:13:08.000Z</time>
    </trkpt>
    <trkpt lat="60.2472820133" lon="30.48383452">
        <ele>87.6</ele>
        <time>2026-08-29T13:13:21.000Z</time>
    </trkpt>
    <trkpt lat="60.2471790835" lon="30.4839474242">
        <ele>87.6</ele>
        <time>2026-08-29T13:13:33.000Z</time>
    </trkpt>
    <trkpt lat="60.2470984496" lon="30.4841199238">
        <ele>87.6</ele>
        <time>2026-08-29T13:13:42.000Z</time>
    </trkpt>
    <trkpt lat="60.2470783331" lon="30.4841816146">
        <ele>86.2</ele>
        <time>2026-08-29T13:13:45.000Z</time>
    </trkpt>
    <trkpt lat="60.2469841205" lon="30.4842938483">
        <ele>85.7</ele>
        <time>2026-08-29T13:13:56.000Z</time>
    </trkpt>
    <trkpt lat="60.2469284646" lon="30.4843601491">
        <ele>85.7</ele>
        <time>2026-08-29T13:14:09.000Z</time>
    </trkpt>
    <trkpt lat="60.2468184102" lon="30.4845693614">
        <ele>86.7</ele>
        <time>2026-08-29T13:14:21.000Z</time>
    </trkpt>
    <trkpt lat="60.2467040811" lon="30.4847482312">
        <ele>88.1</ele>
        <time>2026-08-29T13:14:34.000Z</time>
    </trkpt>
    <trkpt lat="60.2466527838" lon="30.4847717844">
        <ele>89.1</ele>
        <time>2026-08-29T13:14:41.000Z</time>
    </trkpt>
    <trkpt lat="60.2466148976" lon="30.4848275241">
        <ele>89.1</ele>
        <time>2026-08-29T13:14:46.000Z</time>
    </trkpt>
    <trkpt lat="60.2465606667" lon="30.4848601297">
        <ele>89.1</ele>
        <time>2026-08-29T13:14:51.000Z</time>
    </trkpt>
    <trkpt lat="60.2464826312" lon="30.4850100819">
        <ele>89.1</ele>
        <time>2026-08-29T13:15:04.000Z</time>
    </trkpt>
    <trkpt lat="60.2464019135" lon="30.4850482196">
        <ele>89.1</ele>
        <time>2026-08-29T13:15:14.000Z</time>
    </trkpt>
    <trkpt lat="60.2463543043" lon="30.4850841779">
        <ele>89.1</ele>
        <time>2026-08-29T13:15:25.000Z</time>
    </trkpt>
    <trkpt lat="60.246334523" lon="30.4851576872">
        <ele>90.5</ele>
        <time>2026-08-29T13:15:40.000Z</time>
    </trkpt>
    <trkpt lat="60.2463304996" lon="30.4851923883">
        <ele>93.9</ele>
        <time>2026-08-29T13:15:45.000Z</time>
    </trkpt>
    <trkpt lat="60.2462814655" lon="30.4852995928">
        <ele>95.8</ele>
        <time>2026-08-29T13:16:01.000Z</time>
    </trkpt>
    <trkpt lat="60.2461580839" lon="30.485474607">
        <ele>96.3</ele>
        <time>2026-08-29T13:16:13.000Z</time>
    </trkpt>
    <trkpt lat="60.2459813934" lon="30.4856155906">
        <ele>96.3</ele>
        <time>2026-08-29T13:16:25.000Z</time>
    </trkpt>
    <trkpt lat="60.245867651" lon="30.4856894352">
        <ele>94.8</ele>
        <time>2026-08-29T13:16:38.000Z</time>
    </trkpt>
    <trkpt lat="60.2458507195" lon="30.4857107252">
        <ele>93.9</ele>
        <time>2026-08-29T13:16:51.000Z</time>
    </trkpt>
    <trkpt lat="60.2458414156" lon="30.4857161734">
        <ele>93.4</ele>
        <time>2026-08-29T13:17:11.000Z</time>
    </trkpt>
    <trkpt lat="60.2458399069" lon="30.4857222922">
        <ele>93.4</ele>
        <time>2026-08-29T13:17:33.000Z</time>
    </trkpt>
    <trkpt lat="60.2458603587" lon="30.4857023433">
        <ele>93.4</ele>
        <time>2026-08-29T13:17:47.000Z</time>
    </trkpt>
    <trkpt lat="60.24591811" lon="30.4856656305">
        <ele>94.8</ele>
        <time>2026-08-29T13:17:59.000Z</time>
    </trkpt>
    <trkpt lat="60.2459344547" lon="30.4856725875">
        <ele>95.8</ele>
        <time>2026-08-29T13:18:05.000Z</time>
    </trkpt>
    <trkpt lat="60.2460117359" lon="30.4856694024">
        <ele>96.8</ele>
        <time>2026-08-29T13:18:18.000Z</time>
    </trkpt>
    <trkpt lat="60.2460503764" lon="30.485612154">
        <ele>97.2</ele>
        <time>2026-08-29T13:18:34.000Z</time>
    </trkpt>
    <trkpt lat="60.2460516337" lon="30.4856036045">
        <ele>97.2</ele>
        <time>2026-08-29T13:18:37.000Z</time>
    </trkpt>
    <trkpt lat="60.2460840717" lon="30.4854822345">
        <ele>97.2</ele>
        <time>2026-08-29T13:18:49.000Z</time>
    </trkpt>
    <trkpt lat="60.2461212873" lon="30.4853525665">
        <ele>94.3</ele>
        <time>2026-08-29T13:19:01.000Z</time>
    </trkpt>
    <trkpt lat="60.2462057769" lon="30.4852616228">
        <ele>91.9</ele>
        <time>2026-08-29T13:19:14.000Z</time>
    </trkpt>
    <trkpt lat="60.246287249" lon="30.4852823261">
        <ele>91.0</ele>
        <time>2026-08-29T13:19:25.000Z</time>
    </trkpt>
    <trkpt lat="60.2462948766" lon="30.4852586053">
        <ele>91.0</ele>
        <time>2026-08-29T13:19:41.000Z</time>
    </trkpt>
    <trkpt lat="60.2463179268" lon="30.4852649756">
        <ele>91.0</ele>
        <time>2026-08-29T13:20:01.000Z</time>
    </trkpt>
    <trkpt lat="60.2463444974" lon="30.4852228146">
        <ele>90.0</ele>
        <time>2026-08-29T13:20:18.000Z</time>
    </trkpt>
    <trkpt lat="60.2463373728" lon="30.4851126764">
        <ele>90.0</ele>
        <time>2026-08-29T13:20:27.000Z</time>
    </trkpt>
    <trkpt lat="60.2463124786" lon="30.4849991016">
        <ele>89.5</ele>
        <time>2026-08-29T13:20:33.000Z</time>
    </trkpt>
    <trkpt lat="60.2462964691" lon="30.4848924838">
        <ele>89.5</ele>
        <time>2026-08-29T13:20:37.000Z</time>
    </trkpt>
    <trkpt lat="60.2462590858" lon="30.4848038871">
        <ele>89.5</ele>
        <time>2026-08-29T13:20:41.000Z</time>
    </trkpt>
    <trkpt lat="60.2462199423" lon="30.4846917372">
        <ele>89.5</ele>
        <time>2026-08-29T13:20:45.000Z</time>
    </trkpt>
    <trkpt lat="60.2461963054" lon="30.4846027214">
        <ele>89.5</ele>
        <time>2026-08-29T13:20:48.000Z</time>
    </trkpt>
    <trkpt lat="60.2461947966" lon="30.484263422">
        <ele>89.5</ele>
        <time>2026-08-29T13:20:59.000Z</time>
    </trkpt>
    <trkpt lat="60.2461880073" lon="30.4841493443">
        <ele>89.5</ele>
        <time>2026-08-29T13:21:04.000Z</time>
    </trkpt>
    <trkpt lat="60.2461886778" lon="30.4839983024">
        <ele>88.6</ele>
        <time>2026-08-29T13:21:11.000Z</time>
    </trkpt>
    <trkpt lat="60.2461567428" lon="30.4836694803">
        <ele>87.1</ele>
        <time>2026-08-29T13:21:24.000Z</time>
    </trkpt>
    <trkpt lat="60.2461616881" lon="30.4835470207">
        <ele>86.7</ele>
        <time>2026-08-29T13:21:32.000Z</time>
    </trkpt>
    <trkpt lat="60.2460997459" lon="30.4832767881">
        <ele>84.7</ele>
        <time>2026-08-29T13:21:43.000Z</time>
    </trkpt>
    <trkpt lat="60.2460646257" lon="30.4831597768">
        <ele>84.3</ele>
        <time>2026-08-29T13:21:48.000Z</time>
    </trkpt>
    <trkpt lat="60.2460216265" lon="30.4830227327">
        <ele>82.3</ele>
        <time>2026-08-29T13:21:59.000Z</time>
    </trkpt>
    <trkpt lat="60.2460179385" lon="30.4829634726">
        <ele>81.8</ele>
        <time>2026-08-29T13:22:19.000Z</time>
    </trkpt>
    <trkpt lat="60.2459994145" lon="30.4829267599">
        <ele>81.8</ele>
        <time>2026-08-29T13:22:39.000Z</time>
    </trkpt>
    <trkpt lat="60.2460028511" lon="30.4829375725">
        <ele>80.4</ele>
        <time>2026-08-29T13:22:58.000Z</time>
    </trkpt>
    <trkpt lat="60.2459916193" lon="30.4829398356">
        <ele>80.4</ele>
        <time>2026-08-29T13:23:12.000Z</time>
    </trkpt>
    <trkpt lat="60.2459707484" lon="30.4829588626">
        <ele>80.4</ele>
        <time>2026-08-29T13:23:39.000Z</time>
    </trkpt>
    <trkpt lat="60.2459568344" lon="30.4829306155">
        <ele>79.9</ele>
        <time>2026-08-29T13:24:00.000Z</time>
    </trkpt>
    <trkpt lat="60.2459471952" lon="30.4829161149">
        <ele>79.9</ele>
        <time>2026-08-29T13:24:20.000Z</time>
    </trkpt>
    <trkpt lat="60.2459562477" lon="30.4829057213">
        <ele>79.5</ele>
        <time>2026-08-29T13:24:36.000Z</time>
    </trkpt>
    <trkpt lat="60.2460046951" lon="30.4829127621">
        <ele>79.5</ele>
        <time>2026-08-29T13:24:57.000Z</time>
    </trkpt>
    <trkpt lat="60.2460093889" lon="30.4827992711">
        <ele>79.0</ele>
        <time>2026-08-29T13:25:20.000Z</time>
    </trkpt>
    <trkpt lat="60.2459512185" lon="30.4827722814">
        <ele>78.5</ele>
        <time>2026-08-29T13:25:42.000Z</time>
    </trkpt>
    <trkpt lat="60.2459953073" lon="30.4827975947">
        <ele>78.5</ele>
        <time>2026-08-29T13:26:01.000Z</time>
    </trkpt>
    <trkpt lat="60.2459918708" lon="30.4829519894">
        <ele>78.5</ele>
        <time>2026-08-29T13:26:25.000Z</time>
    </trkpt>
    <trkpt lat="60.2459590137" lon="30.4830067232">
        <ele>78.5</ele>
        <time>2026-08-29T13:26:48.000Z</time>
    </trkpt>
    <trkpt lat="60.2458674833" lon="30.4828329664">
        <ele>78.5</ele>
        <time>2026-08-29T13:27:04.000Z</time>
    </trkpt>
    <trkpt lat="60.2459359635" lon="30.4828502331">
        <ele>78.5</ele>
        <time>2026-08-29T13:27:19.000Z</time>
    </trkpt>
    <trkpt lat="60.245919954" lon="30.4829518218">
        <ele>79.5</ele>
        <time>2026-08-29T13:27:38.000Z</time>
    </trkpt>
    <trkpt lat="60.2459016815" lon="30.4829622991">
        <ele>79.9</ele>
        <time>2026-08-29T13:27:52.000Z</time>
    </trkpt>
    <trkpt lat="60.2458909526" lon="30.4829544201">
        <ele>79.9</ele>
        <time>2026-08-29T13:28:12.000Z</time>
    </trkpt>
    <trkpt lat="60.2458998375" lon="30.4829577729">
        <ele>79.9</ele>
        <time>2026-08-29T13:28:31.000Z</time>
    </trkpt>
    <trkpt lat="60.2459089737" lon="30.4829222336">
        <ele>79.9</ele>
        <time>2026-08-29T13:28:44.000Z</time>
    </trkpt>
    <trkpt lat="60.2459152602" lon="30.4829342198">
        <ele>79.9</ele>
        <time>2026-08-29T13:28:58.000Z</time>
    </trkpt>
    <trkpt lat="60.2459191158" lon="30.4829416797">
        <ele>80.4</ele>
        <time>2026-08-29T13:29:20.000Z</time>
    </trkpt>
    <trkpt lat="60.2460013423" lon="30.4831050429">
        <ele>81.4</ele>
        <time>2026-08-29T13:29:30.000Z</time>
    </trkpt>
    <trkpt lat="60.246075606" lon="30.4833918717">
        <ele>83.3</ele>
        <time>2026-08-29T13:29:45.000Z</time>
    </trkpt>
    <trkpt lat="60.2461541444" lon="30.4836864956">
        <ele>84.7</ele>
        <time>2026-08-29T13:29:58.000Z</time>
    </trkpt>
    <trkpt lat="60.246205274" lon="30.4840203468">
        <ele>85.7</ele>
        <time>2026-08-29T13:30:12.000Z</time>
    </trkpt>
    <trkpt lat="60.2462242171" lon="30.4841910861">
        <ele>87.1</ele>
        <time>2026-08-29T13:30:23.000Z</time>
    </trkpt>
    <trkpt lat="60.246243747" lon="30.4845021386">
        <ele>88.1</ele>
        <time>2026-08-29T13:30:36.000Z</time>
    </trkpt>
    <trkpt lat="60.2462772746" lon="30.4848141968">
        <ele>88.6</ele>
        <time>2026-08-29T13:30:52.000Z</time>
    </trkpt>
    <trkpt lat="60.2463074494" lon="30.4849112593">
        <ele>88.6</ele>
        <time>2026-08-29T13:30:57.000Z</time>
    </trkpt>
    <trkpt lat="60.2463376243" lon="30.4849886242">
        <ele>88.6</ele>
        <time>2026-08-29T13:31:00.000Z</time>
    </trkpt>
    <trkpt lat="60.2464319207" lon="30.4852101579">
        <ele>88.6</ele>
        <time>2026-08-29T13:31:11.000Z</time>
    </trkpt>
    <trkpt lat="60.2464939468" lon="30.4855827335">
        <ele>88.6</ele>
        <time>2026-08-29T13:31:26.000Z</time>
    </trkpt>
    <trkpt lat="60.2465255465" lon="30.4859190155">
        <ele>88.6</ele>
        <time>2026-08-29T13:31:37.000Z</time>
    </trkpt>
    <trkpt lat="60.2465274744" lon="30.4862403776">
        <ele>89.5</ele>
        <time>2026-08-29T13:31:50.000Z</time>
    </trkpt>
    <trkpt lat="60.2465692163" lon="30.4863718897">
        <ele>90.5</ele>
        <time>2026-08-29T13:31:58.000Z</time>
    </trkpt>
    <trkpt lat="60.2465973794" lon="30.486439364">
        <ele>91.0</ele>
        <time>2026-08-29T13:32:01.000Z</time>
    </trkpt>
    <trkpt lat="60.2466981299" lon="30.4865885619">
        <ele>91.9</ele>
        <time>2026-08-29T13:32:11.000Z</time>
    </trkpt>
    <trkpt lat="60.2467735671" lon="30.4866540246">
        <ele>92.4</ele>
        <time>2026-08-29T13:32:25.000Z</time>
    </trkpt>
    <trkpt lat="60.2468604874" lon="30.4867496621">
        <ele>92.4</ele>
        <time>2026-08-29T13:32:39.000Z</time>
    </trkpt>
    <trkpt lat="60.2469867188" lon="30.4868696071">
        <ele>92.4</ele>
        <time>2026-08-29T13:32:50.000Z</time>
    </trkpt>
    <trkpt lat="60.2470465656" lon="30.4869093373">
        <ele>92.4</ele>
        <time>2026-08-29T13:32:54.000Z</time>
    </trkpt>
    <trkpt lat="60.247228872" lon="30.487071611">
        <ele>92.4</ele>
        <time>2026-08-29T13:33:09.000Z</time>
    </trkpt>
    <trkpt lat="60.2473848592" lon="30.4871147778">
        <ele>92.4</ele>
        <time>2026-08-29T13:33:21.000Z</time>
    </trkpt>
    <trkpt lat="60.2475252561" lon="30.4871278536">
        <ele>92.9</ele>
        <time>2026-08-29T13:33:34.000Z</time>
    </trkpt>
    <trkpt lat="60.2477803174" lon="30.487209158">
        <ele>92.9</ele>
        <time>2026-08-29T13:33:51.000Z</time>
    </trkpt>
    <trkpt lat="60.2478766255" lon="30.4872851819">
        <ele>92.9</ele>
        <time>2026-08-29T13:33:58.000Z</time>
    </trkpt>
    <trkpt lat="60.2480861731" lon="30.4875150137">
        <ele>92.9</ele>
        <time>2026-08-29T13:34:14.000Z</time>
    </trkpt>
    <trkpt lat="60.2481285855" lon="30.487622302">
        <ele>91.9</ele>
        <time>2026-08-29T13:34:20.000Z</time>
    </trkpt>
    <trkpt lat="60.2482361253" lon="30.4878449254">
        <ele>91.0</ele>
        <time>2026-08-29T13:34:30.000Z</time>
    </trkpt>
    <trkpt lat="60.2483829763" lon="30.488007199">
        <ele>90.0</ele>
        <time>2026-08-29T13:34:42.000Z</time>
    </trkpt>
    <trkpt lat="60.2485422324" lon="30.4882743303">
        <ele>89.5</ele>
        <time>2026-08-29T13:34:57.000Z</time>
    </trkpt>
    <trkpt lat="60.2485645283" lon="30.4882895015">
        <ele>89.5</ele>
        <time>2026-08-29T13:35:23.000Z</time>
    </trkpt>
    <trkpt lat="60.2486613393" lon="30.4884416331">
        <ele>89.5</ele>
        <time>2026-08-29T13:35:35.000Z</time>
    </trkpt>
    <trkpt lat="60.2487324178" lon="30.4886412062">
        <ele>89.5</ele>
        <time>2026-08-29T13:35:46.000Z</time>
    </trkpt>
    <trkpt lat="60.2487592399" lon="30.4886790924">
        <ele>88.6</ele>
        <time>2026-08-29T13:36:03.000Z</time>
    </trkpt>
    <trkpt lat="60.248782374" lon="30.488708429">
        <ele>88.1</ele>
        <time>2026-08-29T13:36:13.000Z</time>
    </trkpt>
    <trkpt lat="60.2487982158" lon="30.4887415376">
        <ele>87.6</ele>
        <time>2026-08-29T13:36:19.000Z</time>
    </trkpt>
    <trkpt lat="60.2488930151" lon="30.4889370035">
        <ele>87.1</ele>
        <time>2026-08-29T13:36:30.000Z</time>
    </trkpt>
    <trkpt lat="60.2490091883" lon="30.4891359061">
        <ele>85.7</ele>
        <time>2026-08-29T13:36:44.000Z</time>
    </trkpt>
    <trkpt lat="60.2490174863" lon="30.4891474731">
        <ele>85.7</ele>
        <time>2026-08-29T13:36:45.000Z</time>
    </trkpt>
    <trkpt lat="60.2490485832" lon="30.4891834315">
        <ele>85.2</ele>
        <time>2026-08-29T13:36:48.000Z</time>
    </trkpt>
    <trkpt lat="60.2491468191" lon="30.4895340465">
        <ele>83.3</ele>
        <time>2026-08-29T13:37:04.000Z</time>
    </trkpt>
    <trkpt lat="60.2492535207" lon="30.4895798955">
        <ele>82.3</ele>
        <time>2026-08-29T13:37:16.000Z</time>
    </trkpt>
    <trkpt lat="60.2493629884" lon="30.4896011855">
        <ele>80.9</ele>
        <time>2026-08-29T13:37:29.000Z</time>
    </trkpt>
    <trkpt lat="60.2494532615" lon="30.489621805">
        <ele>79.9</ele>
        <time>2026-08-29T13:37:40.000Z</time>
    </trkpt>
    <trkpt lat="60.2495898865" lon="30.4897247348">
        <ele>79.5</ele>
        <time>2026-08-29T13:37:48.000Z</time>
    </trkpt>
    <trkpt lat="60.2497348096" lon="30.489824228">
        <ele>78.5</ele>
        <time>2026-08-29T13:38:02.000Z</time>
    </trkpt>
    <trkpt lat="60.249831453" lon="30.4899300914">
        <ele>78.0</ele>
        <time>2026-08-29T13:38:14.000Z</time>
    </trkpt>
    <trkpt lat="60.2500878554" lon="30.4902122263">
        <ele>77.5</ele>
        <time>2026-08-29T13:38:28.000Z</time>
    </trkpt>
    <trkpt lat="60.2502559125" lon="30.4903398827">
        <ele>77.5</ele>
        <time>2026-08-29T13:38:43.000Z</time>
    </trkpt>
    <trkpt lat="60.2504112292" lon="30.4905530345">
        <ele>77.5</ele>
        <time>2026-08-29T13:38:56.000Z</time>
    </trkpt>
    <trkpt lat="60.2504968923" lon="30.4906797688">
        <ele>77.5</ele>
        <time>2026-08-29T13:39:06.000Z</time>
    </trkpt>
    <trkpt lat="60.2507014945" lon="30.4906266276">
        <ele>77.5</ele>
        <time>2026-08-29T13:39:19.000Z</time>
    </trkpt>
    <trkpt lat="60.2508682944" lon="30.4905040003">
        <ele>79.0</ele>
        <time>2026-08-29T13:39:32.000Z</time>
    </trkpt>
    <trkpt lat="60.2509217709" lon="30.4904138111">
        <ele>79.0</ele>
        <time>2026-08-29T13:39:45.000Z</time>
    </trkpt>
    <trkpt lat="60.2509868983" lon="30.4903122224">
        <ele>79.0</ele>
        <time>2026-08-29T13:39:49.000Z</time>
    </trkpt>
    <trkpt lat="60.251059318" lon="30.4901700653">
        <ele>79.0</ele>
        <time>2026-08-29T13:39:53.000Z</time>
    </trkpt>
    <trkpt lat="60.2511836216" lon="30.4899142496">
        <ele>79.5</ele>
        <time>2026-08-29T13:40:05.000Z</time>
    </trkpt>
    <trkpt lat="60.2512197476" lon="30.4898145888">
        <ele>79.5</ele>
        <time>2026-08-29T13:40:15.000Z</time>
    </trkpt>
    <trkpt lat="60.2512578014" lon="30.4896984156">
        <ele>79.5</ele>
        <time>2026-08-29T13:40:22.000Z</time>
    </trkpt>
    <trkpt lat="60.2513729688" lon="30.4894616269">
        <ele>79.5</ele>
        <time>2026-08-29T13:40:35.000Z</time>
    </trkpt>
    <trkpt lat="60.2515156288" lon="30.4891529214">
        <ele>79.5</ele>
        <time>2026-08-29T13:40:49.000Z</time>
    </trkpt>
    <trkpt lat="60.2516774833" lon="30.4889776558">
        <ele>79.5</ele>
        <time>2026-08-29T13:41:02.000Z</time>
    </trkpt>
    <trkpt lat="60.2518447861" lon="30.4888490774">
        <ele>79.9</ele>
        <time>2026-08-29T13:41:14.000Z</time>
    </trkpt>
    <trkpt lat="60.2519850153" lon="30.4888090957">
        <ele>80.4</ele>
        <time>2026-08-29T13:41:27.000Z</time>
    </trkpt>
    <trkpt lat="60.2519998513" lon="30.4888040666">
        <ele>80.4</ele>
        <time>2026-08-29T13:41:28.000Z</time>
    </trkpt>
    <trkpt lat="60.2520977519" lon="30.4888053238">
        <ele>80.4</ele>
        <time>2026-08-29T13:41:39.000Z</time>
    </trkpt>
    <trkpt lat="60.2520977519" lon="30.4888035636">
        <ele>80.4</ele>
        <time>2026-08-29T13:41:40.000Z</time>
    </trkpt>
    <trkpt lat="60.2522426751" lon="30.4887820221">
        <ele>80.4</ele>
        <time>2026-08-29T13:41:52.000Z</time>
    </trkpt>
    <trkpt lat="60.2524128277" lon="30.4887558706">
        <ele>80.4</ele>
        <time>2026-08-29T13:42:05.000Z</time>
    </trkpt>
    <trkpt lat="60.2525883447" lon="30.4886925034">
        <ele>79.9</ele>
        <time>2026-08-29T13:42:18.000Z</time>
    </trkpt>
    <trkpt lat="60.2527782787" lon="30.4886702076">
        <ele>79.9</ele>
        <time>2026-08-29T13:42:32.000Z</time>
    </trkpt>
    <trkpt lat="60.2528713178" lon="30.488656126">
        <ele>79.0</ele>
        <time>2026-08-29T13:42:41.000Z</time>
    </trkpt>
    <trkpt lat="60.2530900016" lon="30.4886217602">
        <ele>78.5</ele>
        <time>2026-08-29T13:42:53.000Z</time>
    </trkpt>
    <trkpt lat="60.2532271296" lon="30.488525033">
        <ele>77.5</ele>
        <time>2026-08-29T13:43:05.000Z</time>
    </trkpt>
    <trkpt lat="60.2533021476" lon="30.4884366877">
        <ele>77.5</ele>
        <time>2026-08-29T13:43:10.000Z</time>
    </trkpt>
    <trkpt lat="60.2534489986" lon="30.4882567283">
        <ele>76.6</ele>
        <time>2026-08-29T13:43:24.000Z</time>
    </trkpt>
    <trkpt lat="60.2534607332" lon="30.4882401321">
        <ele>76.6</ele>
        <time>2026-08-29T13:43:25.000Z</time>
    </trkpt>
    <trkpt lat="60.2535634954" lon="30.4881566484">
        <ele>76.1</ele>
        <time>2026-08-29T13:43:34.000Z</time>
    </trkpt>
    <trkpt lat="60.2536734659" lon="30.4880695604">
        <ele>76.1</ele>
        <time>2026-08-29T13:43:40.000Z</time>
    </trkpt>
    <trkpt lat="60.2537570335" lon="30.4879714921">
        <ele>76.1</ele>
        <time>2026-08-29T13:43:48.000Z</time>
    </trkpt>
    <trkpt lat="60.2538405173" lon="30.4878888465">
        <ele>75.6</ele>
        <time>2026-08-29T13:44:04.000Z</time>
    </trkpt>
    <trkpt lat="60.2540409286" lon="30.4878403991">
        <ele>75.6</ele>
        <time>2026-08-29T13:44:17.000Z</time>
    </trkpt>
    <trkpt lat="60.254108822" lon="30.4878398962">
        <ele>75.6</ele>
        <time>2026-08-29T13:44:22.000Z</time>
    </trkpt>
    <trkpt lat="60.2543425094" lon="30.4878563248">
        <ele>75.6</ele>
        <time>2026-08-29T13:44:37.000Z</time>
    </trkpt>
    <trkpt lat="60.254506208" lon="30.4878950492">
        <ele>75.6</ele>
        <time>2026-08-29T13:44:50.000Z</time>
    </trkpt>
    <trkpt lat="60.2547026798" lon="30.4879109748">
        <ele>75.6</ele>
        <time>2026-08-29T13:45:03.000Z</time>
    </trkpt>
    <trkpt lat="60.2548010834" lon="30.487939138">
        <ele>75.6</ele>
        <time>2026-08-29T13:45:12.000Z</time>
    </trkpt>
    <trkpt lat="60.2549243812" lon="30.4879403114">
        <ele>75.6</ele>
        <time>2026-08-29T13:45:21.000Z</time>
    </trkpt>
    <trkpt lat="60.2549645305" lon="30.4879163392">
        <ele>75.6</ele>
        <time>2026-08-29T13:45:24.000Z</time>
    </trkpt>
    <trkpt lat="60.2549656201" lon="30.4878818057">
        <ele>75.6</ele>
        <time>2026-08-29T13:45:26.000Z</time>
    </trkpt>
    <trkpt lat="60.2549660392" lon="30.4877921194">
        <ele>75.6</ele>
        <time>2026-08-29T13:45:39.000Z</time>
    </trkpt>
    <trkpt lat="60.2549686376" lon="30.4877660517">
        <ele>75.6</ele>
        <time>2026-08-29T13:45:48.000Z</time>
    </trkpt>
    <trkpt lat="60.2549612615" lon="30.4876587633">
        <ele>75.6</ele>
        <time>2026-08-29T13:45:58.000Z</time>
    </trkpt>
    <trkpt lat="60.2549621835" lon="30.4876839928">
        <ele>75.6</ele>
        <time>2026-08-29T13:46:05.000Z</time>
    </trkpt>
    <trkpt lat="60.2549366187" lon="30.4877017625">
        <ele>75.6</ele>
        <time>2026-08-29T13:46:16.000Z</time>
    </trkpt>
    <trkpt lat="60.2549310867" lon="30.4876939673">
        <ele>75.6</ele>
        <time>2026-08-29T13:46:31.000Z</time>
    </trkpt>
    <trkpt lat="60.2549303323" lon="30.4877026845">
        <ele>75.6</ele>
        <time>2026-08-29T13:46:35.000Z</time>
    </trkpt>
    <trkpt lat="60.2549703978" lon="30.4876831546">
        <ele>75.6</ele>
        <time>2026-08-29T13:46:39.000Z</time>
    </trkpt>
    <trkpt lat="60.2549807075" lon="30.4875589348">
        <ele>75.6</ele>
        <time>2026-08-29T13:46:44.000Z</time>
    </trkpt>
    <trkpt lat="60.2549907658" lon="30.4874327872">
        <ele>75.6</ele>
        <time>2026-08-29T13:46:48.000Z</time>
    </trkpt>
    <trkpt lat="60.2550573181" lon="30.4870957509">
        <ele>75.6</ele>
        <time>2026-08-29T13:47:01.000Z</time>
    </trkpt>
    <trkpt lat="60.2550688852" lon="30.4870241694">
        <ele>75.6</ele>
        <time>2026-08-29T13:47:06.000Z</time>
    </trkpt>
    <trkpt lat="60.2551099565" lon="30.4866773263">
        <ele>75.6</ele>
        <time>2026-08-29T13:47:17.000Z</time>
    </trkpt>
    <trkpt lat="60.2550946176" lon="30.4865212552">
        <ele>75.6</ele>
        <time>2026-08-29T13:47:23.000Z</time>
    </trkpt>
    <trkpt lat="60.2549403906" lon="30.4864137992">
        <ele>76.6</ele>
        <time>2026-08-29T13:47:33.000Z</time>
    </trkpt>
    <trkpt lat="60.2548270673" lon="30.486341631">
        <ele>76.6</ele>
        <time>2026-08-29T13:47:41.000Z</time>
    </trkpt>
    <trkpt lat="60.2547227964" lon="30.4863003083">
        <ele>76.6</ele>
        <time>2026-08-29T13:47:48.000Z</time>
    </trkpt>
    <trkpt lat="60.2544988319" lon="30.4862549622">
        <ele>76.6</ele>
        <time>2026-08-29T13:48:03.000Z</time>
    </trkpt>
    <trkpt lat="60.254471004" lon="30.4862603266">
        <ele>76.6</ele>
        <time>2026-08-29T13:48:05.000Z</time>
    </trkpt>
    <trkpt lat="60.2542888653" lon="30.4862054251">
        <ele>76.6</ele>
        <time>2026-08-29T13:48:19.000Z</time>
    </trkpt>
    <trkpt lat="60.2541640587" lon="30.4861513618">
        <ele>77.0</ele>
        <time>2026-08-29T13:48:28.000Z</time>
    </trkpt>
    <trkpt lat="60.2541221492" lon="30.4861476738">
        <ele>77.0</ele>
        <time>2026-08-29T13:48:39.000Z</time>
    </trkpt>
    <trkpt lat="60.254114354" lon="30.486160079">
        <ele>77.0</ele>
        <time>2026-08-29T13:48:51.000Z</time>
    </trkpt>
    <trkpt lat="60.2541136835" lon="30.4861504398">
        <ele>77.0</ele>
        <time>2026-08-29T13:49:04.000Z</time>
    </trkpt>
    <trkpt lat="60.2541191317" lon="30.4861508589">
        <ele>77.0</ele>
        <time>2026-08-29T13:49:07.000Z</time>
    </trkpt>
    </trkseg>
</trk>
</gpx>